<?xml version="1.0" encoding="UTF-8" standalone="no" ?>
<gpx xmlns="http://www.topografix.com/GPX/1/1" xmlns:xsi="http://www.w3.org/2001/XMLSchema-instance" xsi:schemaLocation="http://www.topografix.com/GPX/1/1 http://www.topografix.com/GPX/1/1/gpx.xsd" version="1.1" creator="VisuGPX - https://www.visugpx.com">
  <metadata>
    <name>randonnée ovs 28 decembre</name>
    <desc><![CDATA[randonnée dans l\'esterel]]></desc>
  </metadata>
  <trk>
    <name><![CDATA[ACTIVE LOG 001]]></name>
    <trkseg>
      <trkpt lat="43.45644" lon="6.86857">
        <ele>40.993408203125</ele>
        <time>2014-12-28T09:06:33Z</time>
      </trkpt>
      <trkpt lat="43.45642" lon="6.86862">
        <ele>41.473999023438</ele>
        <time>2014-12-28T09:10:46Z</time>
      </trkpt>
      <trkpt lat="43.45642" lon="6.86862">
        <ele>40.993408203125</ele>
        <time>2014-12-28T09:18:37Z</time>
      </trkpt>
      <trkpt lat="43.45644" lon="6.86864">
        <ele>40.032104492188</ele>
        <time>2014-12-28T09:18:49Z</time>
      </trkpt>
      <trkpt lat="43.45655" lon="6.86874">
        <ele>38.590087890625</ele>
        <time>2014-12-28T09:19:06Z</time>
      </trkpt>
      <trkpt lat="43.45659" lon="6.86904">
        <ele>40.032104492188</ele>
        <time>2014-12-28T09:19:28Z</time>
      </trkpt>
      <trkpt lat="43.45665" lon="6.86936">
        <ele>40.032104492188</ele>
        <time>2014-12-28T09:19:53Z</time>
      </trkpt>
      <trkpt lat="43.45664" lon="6.86945">
        <ele>40.512817382812</ele>
        <time>2014-12-28T09:19:59Z</time>
      </trkpt>
      <trkpt lat="43.45664" lon="6.86993">
        <ele>40.512817382812</ele>
        <time>2014-12-28T09:20:31Z</time>
      </trkpt>
      <trkpt lat="43.45661" lon="6.87045">
        <ele>40.032104492188</ele>
        <time>2014-12-28T09:21:06Z</time>
      </trkpt>
      <trkpt lat="43.45665" lon="6.87086">
        <ele>40.512817382812</ele>
        <time>2014-12-28T09:21:35Z</time>
      </trkpt>
      <trkpt lat="43.45665" lon="6.87097">
        <ele>41.473999023438</ele>
        <time>2014-12-28T09:21:57Z</time>
      </trkpt>
      <trkpt lat="43.45668" lon="6.87121">
        <ele>40.512817382812</ele>
        <time>2014-12-28T09:22:14Z</time>
      </trkpt>
      <trkpt lat="43.45673" lon="6.87153">
        <ele>40.032104492188</ele>
        <time>2014-12-28T09:22:36Z</time>
      </trkpt>
      <trkpt lat="43.45669" lon="6.87173">
        <ele>40.512817382812</ele>
        <time>2014-12-28T09:22:55Z</time>
      </trkpt>
      <trkpt lat="43.45677" lon="6.87204">
        <ele>38.590087890625</ele>
        <time>2014-12-28T09:23:15Z</time>
      </trkpt>
      <trkpt lat="43.45683" lon="6.87238">
        <ele>39.070678710938</ele>
        <time>2014-12-28T09:23:39Z</time>
      </trkpt>
      <trkpt lat="43.45684" lon="6.87274">
        <ele>40.032104492188</ele>
        <time>2014-12-28T09:24:02Z</time>
      </trkpt>
      <trkpt lat="43.45691" lon="6.87309">
        <ele>41.473999023438</ele>
        <time>2014-12-28T09:24:26Z</time>
      </trkpt>
      <trkpt lat="43.45696" lon="6.87341">
        <ele>39.55126953125</ele>
        <time>2014-12-28T09:24:52Z</time>
      </trkpt>
      <trkpt lat="43.45704" lon="6.87345">
        <ele>41.473999023438</ele>
        <time>2014-12-28T09:25:10Z</time>
      </trkpt>
      <trkpt lat="43.45736" lon="6.87358">
        <ele>39.070678710938</ele>
        <time>2014-12-28T09:25:40Z</time>
      </trkpt>
      <trkpt lat="43.45751" lon="6.87384">
        <ele>39.55126953125</ele>
        <time>2014-12-28T09:26:02Z</time>
      </trkpt>
      <trkpt lat="43.45764" lon="6.87421">
        <ele>38.109375</ele>
        <time>2014-12-28T09:26:28Z</time>
      </trkpt>
      <trkpt lat="43.45775" lon="6.87454">
        <ele>37.628662109375</ele>
        <time>2014-12-28T09:26:52Z</time>
      </trkpt>
      <trkpt lat="43.45785" lon="6.87485">
        <ele>36.186767578125</ele>
        <time>2014-12-28T09:27:16Z</time>
      </trkpt>
      <trkpt lat="43.45792" lon="6.87508">
        <ele>35.225463867188</ele>
        <time>2014-12-28T09:27:35Z</time>
      </trkpt>
      <trkpt lat="43.45807" lon="6.87545">
        <ele>34.26416015625</ele>
        <time>2014-12-28T09:28:02Z</time>
      </trkpt>
      <trkpt lat="43.45819" lon="6.87565">
        <ele>33.783447265625</ele>
        <time>2014-12-28T09:28:21Z</time>
      </trkpt>
      <trkpt lat="43.45823" lon="6.87571">
        <ele>34.26416015625</ele>
        <time>2014-12-28T09:28:42Z</time>
      </trkpt>
      <trkpt lat="43.45824" lon="6.87571">
        <ele>34.26416015625</ele>
        <time>2014-12-28T09:29:37Z</time>
      </trkpt>
      <trkpt lat="43.45851" lon="6.87581">
        <ele>32.341552734375</ele>
        <time>2014-12-28T09:30:03Z</time>
      </trkpt>
      <trkpt lat="43.45869" lon="6.87586">
        <ele>32.341552734375</ele>
        <time>2014-12-28T09:30:21Z</time>
      </trkpt>
      <trkpt lat="43.45894" lon="6.87594">
        <ele>35.225463867188</ele>
        <time>2014-12-28T09:30:43Z</time>
      </trkpt>
      <trkpt lat="43.45903" lon="6.87598">
        <ele>36.186767578125</ele>
        <time>2014-12-28T09:30:52Z</time>
      </trkpt>
      <trkpt lat="43.45918" lon="6.87625">
        <ele>33.783447265625</ele>
        <time>2014-12-28T09:31:14Z</time>
      </trkpt>
      <trkpt lat="43.45934" lon="6.87661">
        <ele>32.822265625</ele>
        <time>2014-12-28T09:31:40Z</time>
      </trkpt>
      <trkpt lat="43.45949" lon="6.87688">
        <ele>31.860717773438</ele>
        <time>2014-12-28T09:32:03Z</time>
      </trkpt>
      <trkpt lat="43.45969" lon="6.87716">
        <ele>29.938110351562</ele>
        <time>2014-12-28T09:32:27Z</time>
      </trkpt>
      <trkpt lat="43.45989" lon="6.8775">
        <ele>29.45751953125</ele>
        <time>2014-12-28T09:32:54Z</time>
      </trkpt>
      <trkpt lat="43.46008" lon="6.87784">
        <ele>28.015502929688</ele>
        <time>2014-12-28T09:33:21Z</time>
      </trkpt>
      <trkpt lat="43.46012" lon="6.87798">
        <ele>27.054321289062</ele>
        <time>2014-12-28T09:33:38Z</time>
      </trkpt>
      <trkpt lat="43.46023" lon="6.87816">
        <ele>26.573608398438</ele>
        <time>2014-12-28T09:34:12Z</time>
      </trkpt>
      <trkpt lat="43.4604" lon="6.8785">
        <ele>25.131713867188</ele>
        <time>2014-12-28T09:34:33Z</time>
      </trkpt>
      <trkpt lat="43.46047" lon="6.87883">
        <ele>21.766967773438</ele>
        <time>2014-12-28T09:34:54Z</time>
      </trkpt>
      <trkpt lat="43.46065" lon="6.879">
        <ele>17.441162109375</ele>
        <time>2014-12-28T09:35:14Z</time>
      </trkpt>
      <trkpt lat="43.4607" lon="6.87901">
        <ele>17.921752929688</ele>
        <time>2014-12-28T09:35:18Z</time>
      </trkpt>
      <trkpt lat="43.46097" lon="6.87891">
        <ele>16.479736328125</ele>
        <time>2014-12-28T09:35:43Z</time>
      </trkpt>
      <trkpt lat="43.46103" lon="6.8789">
        <ele>15.518432617188</ele>
        <time>2014-12-28T09:36:06Z</time>
      </trkpt>
      <trkpt lat="43.46119" lon="6.87871">
        <ele>17.921752929688</ele>
        <time>2014-12-28T09:36:30Z</time>
      </trkpt>
      <trkpt lat="43.46131" lon="6.87842">
        <ele>18.883056640625</ele>
        <time>2014-12-28T09:36:56Z</time>
      </trkpt>
      <trkpt lat="43.46143" lon="6.87833">
        <ele>17.441162109375</ele>
        <time>2014-12-28T09:37:13Z</time>
      </trkpt>
      <trkpt lat="43.46167" lon="6.87825">
        <ele>20.8056640625</ele>
        <time>2014-12-28T09:37:38Z</time>
      </trkpt>
      <trkpt lat="43.46195" lon="6.87812">
        <ele>21.766967773438</ele>
        <time>2014-12-28T09:38:06Z</time>
      </trkpt>
      <trkpt lat="43.4622" lon="6.87798">
        <ele>23.208984375</ele>
        <time>2014-12-28T09:38:32Z</time>
      </trkpt>
      <trkpt lat="43.46251" lon="6.87781">
        <ele>24.170288085938</ele>
        <time>2014-12-28T09:39:01Z</time>
      </trkpt>
      <trkpt lat="43.46282" lon="6.87757">
        <ele>23.208984375</ele>
        <time>2014-12-28T09:39:33Z</time>
      </trkpt>
      <trkpt lat="43.46309" lon="6.87728">
        <ele>24.170288085938</ele>
        <time>2014-12-28T09:40:02Z</time>
      </trkpt>
      <trkpt lat="43.46337" lon="6.87699">
        <ele>25.131713867188</ele>
        <time>2014-12-28T09:40:33Z</time>
      </trkpt>
      <trkpt lat="43.46373" lon="6.87689">
        <ele>20.8056640625</ele>
        <time>2014-12-28T09:41:07Z</time>
      </trkpt>
      <trkpt lat="43.46406" lon="6.87679">
        <ele>19.844360351562</ele>
        <time>2014-12-28T09:41:37Z</time>
      </trkpt>
      <trkpt lat="43.46422" lon="6.87655">
        <ele>25.131713867188</ele>
        <time>2014-12-28T09:42:00Z</time>
      </trkpt>
      <trkpt lat="43.4643" lon="6.87615">
        <ele>34.744873046875</ele>
        <time>2014-12-28T09:42:28Z</time>
      </trkpt>
      <trkpt lat="43.46433" lon="6.87577">
        <ele>41.954711914062</ele>
        <time>2014-12-28T09:42:54Z</time>
      </trkpt>
      <trkpt lat="43.46449" lon="6.87551">
        <ele>43.396606445312</ele>
        <time>2014-12-28T09:43:19Z</time>
      </trkpt>
      <trkpt lat="43.46482" lon="6.87556">
        <ele>31.380126953125</ele>
        <time>2014-12-28T09:43:42Z</time>
      </trkpt>
      <trkpt lat="43.46517" lon="6.87565">
        <ele>27.054321289062</ele>
        <time>2014-12-28T09:44:13Z</time>
      </trkpt>
      <trkpt lat="43.46551" lon="6.87587">
        <ele>29.938110351562</ele>
        <time>2014-12-28T09:44:47Z</time>
      </trkpt>
      <trkpt lat="43.46571" lon="6.87603">
        <ele>29.45751953125</ele>
        <time>2014-12-28T09:45:05Z</time>
      </trkpt>
      <trkpt lat="43.46575" lon="6.87604">
        <ele>29.938110351562</ele>
        <time>2014-12-28T09:45:09Z</time>
      </trkpt>
      <trkpt lat="43.46579" lon="6.87612">
        <ele>30.418823242188</ele>
        <time>2014-12-28T09:45:17Z</time>
      </trkpt>
      <trkpt lat="43.46604" lon="6.87622">
        <ele>31.380126953125</ele>
        <time>2014-12-28T09:45:39Z</time>
      </trkpt>
      <trkpt lat="43.46637" lon="6.87634">
        <ele>30.418823242188</ele>
        <time>2014-12-28T09:46:06Z</time>
      </trkpt>
      <trkpt lat="43.46666" lon="6.87649">
        <ele>30.418823242188</ele>
        <time>2014-12-28T09:46:33Z</time>
      </trkpt>
      <trkpt lat="43.46692" lon="6.87659">
        <ele>31.860717773438</ele>
        <time>2014-12-28T09:46:58Z</time>
      </trkpt>
      <trkpt lat="43.46713" lon="6.87668">
        <ele>33.783447265625</ele>
        <time>2014-12-28T09:47:17Z</time>
      </trkpt>
      <trkpt lat="43.46731" lon="6.87683">
        <ele>38.109375</ele>
        <time>2014-12-28T09:47:38Z</time>
      </trkpt>
      <trkpt lat="43.46751" lon="6.87698">
        <ele>40.993408203125</ele>
        <time>2014-12-28T09:48:01Z</time>
      </trkpt>
      <trkpt lat="43.46765" lon="6.87699">
        <ele>45.799926757812</ele>
        <time>2014-12-28T09:48:31Z</time>
      </trkpt>
      <trkpt lat="43.46773" lon="6.87709">
        <ele>38.590087890625</ele>
        <time>2014-12-28T09:48:53Z</time>
      </trkpt>
      <trkpt lat="43.46786" lon="6.87716">
        <ele>36.186767578125</ele>
        <time>2014-12-28T09:49:10Z</time>
      </trkpt>
      <trkpt lat="43.46804" lon="6.8773">
        <ele>35.7060546875</ele>
        <time>2014-12-28T09:49:31Z</time>
      </trkpt>
      <trkpt lat="43.46813" lon="6.8773">
        <ele>39.070678710938</ele>
        <time>2014-12-28T09:49:52Z</time>
      </trkpt>
      <trkpt lat="43.46821" lon="6.87735">
        <ele>35.7060546875</ele>
        <time>2014-12-28T09:50:06Z</time>
      </trkpt>
      <trkpt lat="43.46833" lon="6.8775">
        <ele>34.26416015625</ele>
        <time>2014-12-28T09:50:26Z</time>
      </trkpt>
      <trkpt lat="43.46854" lon="6.87772">
        <ele>37.148071289062</ele>
        <time>2014-12-28T09:50:56Z</time>
      </trkpt>
      <trkpt lat="43.46879" lon="6.87788">
        <ele>32.341552734375</ele>
        <time>2014-12-28T09:51:20Z</time>
      </trkpt>
      <trkpt lat="43.46896" lon="6.87814">
        <ele>34.26416015625</ele>
        <time>2014-12-28T09:51:44Z</time>
      </trkpt>
      <trkpt lat="43.46914" lon="6.87841">
        <ele>36.186767578125</ele>
        <time>2014-12-28T09:52:09Z</time>
      </trkpt>
      <trkpt lat="43.46935" lon="6.8787">
        <ele>35.225463867188</ele>
        <time>2014-12-28T09:52:36Z</time>
      </trkpt>
      <trkpt lat="43.46961" lon="6.87892">
        <ele>36.186767578125</ele>
        <time>2014-12-28T09:53:03Z</time>
      </trkpt>
      <trkpt lat="43.46993" lon="6.87909">
        <ele>38.590087890625</ele>
        <time>2014-12-28T09:53:31Z</time>
      </trkpt>
      <trkpt lat="43.47016" lon="6.87938">
        <ele>41.954711914062</ele>
        <time>2014-12-28T09:53:59Z</time>
      </trkpt>
      <trkpt lat="43.47027" lon="6.8798">
        <ele>42.435424804688</ele>
        <time>2014-12-28T09:54:29Z</time>
      </trkpt>
      <trkpt lat="43.4706" lon="6.87998">
        <ele>40.512817382812</ele>
        <time>2014-12-28T09:55:00Z</time>
      </trkpt>
      <trkpt lat="43.47083" lon="6.87989">
        <ele>40.993408203125</ele>
        <time>2014-12-28T09:55:22Z</time>
      </trkpt>
      <trkpt lat="43.47107" lon="6.87969">
        <ele>41.954711914062</ele>
        <time>2014-12-28T09:55:44Z</time>
      </trkpt>
      <trkpt lat="43.47134" lon="6.87934">
        <ele>36.186767578125</ele>
        <time>2014-12-28T09:56:17Z</time>
      </trkpt>
      <trkpt lat="43.47155" lon="6.87909">
        <ele>34.744873046875</ele>
        <time>2014-12-28T09:56:42Z</time>
      </trkpt>
      <trkpt lat="43.47185" lon="6.87894">
        <ele>37.628662109375</ele>
        <time>2014-12-28T09:57:11Z</time>
      </trkpt>
      <trkpt lat="43.47204" lon="6.87859">
        <ele>38.109375</ele>
        <time>2014-12-28T09:57:39Z</time>
      </trkpt>
      <trkpt lat="43.47223" lon="6.87866">
        <ele>39.55126953125</ele>
        <time>2014-12-28T09:57:57Z</time>
      </trkpt>
      <trkpt lat="43.47223" lon="6.87895">
        <ele>41.473999023438</ele>
        <time>2014-12-28T09:58:17Z</time>
      </trkpt>
      <trkpt lat="43.47229" lon="6.87931">
        <ele>40.993408203125</ele>
        <time>2014-12-28T09:58:42Z</time>
      </trkpt>
      <trkpt lat="43.47243" lon="6.87965">
        <ele>40.512817382812</ele>
        <time>2014-12-28T09:59:09Z</time>
      </trkpt>
      <trkpt lat="43.47252" lon="6.87997">
        <ele>41.473999023438</ele>
        <time>2014-12-28T09:59:35Z</time>
      </trkpt>
      <trkpt lat="43.47251" lon="6.87991">
        <ele>40.512817382812</ele>
        <time>2014-12-28T10:00:02Z</time>
      </trkpt>
      <trkpt lat="43.47252" lon="6.88009">
        <ele>41.473999023438</ele>
        <time>2014-12-28T10:00:21Z</time>
      </trkpt>
      <trkpt lat="43.47249" lon="6.88047">
        <ele>41.473999023438</ele>
        <time>2014-12-28T10:00:42Z</time>
      </trkpt>
      <trkpt lat="43.47247" lon="6.88055">
        <ele>41.954711914062</ele>
        <time>2014-12-28T10:00:47Z</time>
      </trkpt>
      <trkpt lat="43.47256" lon="6.88095">
        <ele>38.590087890625</ele>
        <time>2014-12-28T10:01:10Z</time>
      </trkpt>
      <trkpt lat="43.47291" lon="6.88105">
        <ele>39.55126953125</ele>
        <time>2014-12-28T10:01:35Z</time>
      </trkpt>
      <trkpt lat="43.47316" lon="6.88073">
        <ele>38.590087890625</ele>
        <time>2014-12-28T10:02:01Z</time>
      </trkpt>
      <trkpt lat="43.47321" lon="6.88063">
        <ele>40.512817382812</ele>
        <time>2014-12-28T10:02:12Z</time>
      </trkpt>
      <trkpt lat="43.47332" lon="6.88045">
        <ele>40.512817382812</ele>
        <time>2014-12-28T10:02:26Z</time>
      </trkpt>
      <trkpt lat="43.47358" lon="6.88025">
        <ele>42.916015625</ele>
        <time>2014-12-28T10:02:49Z</time>
      </trkpt>
      <trkpt lat="43.47374" lon="6.88022">
        <ele>43.877319335938</ele>
        <time>2014-12-28T10:03:03Z</time>
      </trkpt>
      <trkpt lat="43.47391" lon="6.88045">
        <ele>44.358032226562</ele>
        <time>2014-12-28T10:03:25Z</time>
      </trkpt>
      <trkpt lat="43.4739" lon="6.88093">
        <ele>44.358032226562</ele>
        <time>2014-12-28T10:03:53Z</time>
      </trkpt>
      <trkpt lat="43.47379" lon="6.88122">
        <ele>46.280639648438</ele>
        <time>2014-12-28T10:04:16Z</time>
      </trkpt>
      <trkpt lat="43.47374" lon="6.88148">
        <ele>45.799926757812</ele>
        <time>2014-12-28T10:04:38Z</time>
      </trkpt>
      <trkpt lat="43.47371" lon="6.88157">
        <ele>47.722534179688</ele>
        <time>2014-12-28T10:04:53Z</time>
      </trkpt>
      <trkpt lat="43.47371" lon="6.88157">
        <ele>47.722534179688</ele>
        <time>2014-12-28T10:04:54Z</time>
      </trkpt>
      <trkpt lat="43.47372" lon="6.88166">
        <ele>46.76123046875</ele>
        <time>2014-12-28T10:05:17Z</time>
      </trkpt>
      <trkpt lat="43.47376" lon="6.88186">
        <ele>43.877319335938</ele>
        <time>2014-12-28T10:05:40Z</time>
      </trkpt>
      <trkpt lat="43.47384" lon="6.88211">
        <ele>41.473999023438</ele>
        <time>2014-12-28T10:05:59Z</time>
      </trkpt>
      <trkpt lat="43.4739" lon="6.88215">
        <ele>42.916015625</ele>
        <time>2014-12-28T10:06:15Z</time>
      </trkpt>
      <trkpt lat="43.4739" lon="6.88216">
        <ele>42.435424804688</ele>
        <time>2014-12-28T10:06:20Z</time>
      </trkpt>
      <trkpt lat="43.47397" lon="6.88224">
        <ele>42.435424804688</ele>
        <time>2014-12-28T10:06:34Z</time>
      </trkpt>
      <trkpt lat="43.474" lon="6.88231">
        <ele>42.916015625</ele>
        <time>2014-12-28T10:06:40Z</time>
      </trkpt>
      <trkpt lat="43.47398" lon="6.88266">
        <ele>44.838623046875</ele>
        <time>2014-12-28T10:07:05Z</time>
      </trkpt>
      <trkpt lat="43.47396" lon="6.88301">
        <ele>45.799926757812</ele>
        <time>2014-12-28T10:07:30Z</time>
      </trkpt>
      <trkpt lat="43.47394" lon="6.88336">
        <ele>48.683959960938</ele>
        <time>2014-12-28T10:07:57Z</time>
      </trkpt>
      <trkpt lat="43.47392" lon="6.88351">
        <ele>50.1259765625</ele>
        <time>2014-12-28T10:08:08Z</time>
      </trkpt>
      <trkpt lat="43.47393" lon="6.8837">
        <ele>51.087158203125</ele>
        <time>2014-12-28T10:08:24Z</time>
      </trkpt>
      <trkpt lat="43.47394" lon="6.88406">
        <ele>52.048583984375</ele>
        <time>2014-12-28T10:08:49Z</time>
      </trkpt>
      <trkpt lat="43.47406" lon="6.88444">
        <ele>52.048583984375</ele>
        <time>2014-12-28T10:09:17Z</time>
      </trkpt>
      <trkpt lat="43.47422" lon="6.88478">
        <ele>52.529174804688</ele>
        <time>2014-12-28T10:09:44Z</time>
      </trkpt>
      <trkpt lat="43.47451" lon="6.88482">
        <ele>53.97119140625</ele>
        <time>2014-12-28T10:10:10Z</time>
      </trkpt>
      <trkpt lat="43.47453" lon="6.88481">
        <ele>52.048583984375</ele>
        <time>2014-12-28T10:10:26Z</time>
      </trkpt>
      <trkpt lat="43.47458" lon="6.8848">
        <ele>51.087158203125</ele>
        <time>2014-12-28T10:10:48Z</time>
      </trkpt>
      <trkpt lat="43.47465" lon="6.88461">
        <ele>49.16455078125</ele>
        <time>2014-12-28T10:12:15Z</time>
      </trkpt>
      <trkpt lat="43.47475" lon="6.88442">
        <ele>49.645263671875</ele>
        <time>2014-12-28T10:12:38Z</time>
      </trkpt>
      <trkpt lat="43.47514" lon="6.88431">
        <ele>60.700317382812</ele>
        <time>2014-12-28T10:13:13Z</time>
      </trkpt>
      <trkpt lat="43.47528" lon="6.88434">
        <ele>64.065063476562</ele>
        <time>2014-12-28T10:13:24Z</time>
      </trkpt>
      <trkpt lat="43.47545" lon="6.88439">
        <ele>66.46826171875</ele>
        <time>2014-12-28T10:13:45Z</time>
      </trkpt>
      <trkpt lat="43.47568" lon="6.88448">
        <ele>69.352294921875</ele>
        <time>2014-12-28T10:14:10Z</time>
      </trkpt>
      <trkpt lat="43.47598" lon="6.88469">
        <ele>68.390869140625</ele>
        <time>2014-12-28T10:14:40Z</time>
      </trkpt>
      <trkpt lat="43.47613" lon="6.88485">
        <ele>65.987670898438</ele>
        <time>2014-12-28T10:14:59Z</time>
      </trkpt>
      <trkpt lat="43.47617" lon="6.8851">
        <ele>63.584350585938</ele>
        <time>2014-12-28T10:15:15Z</time>
      </trkpt>
      <trkpt lat="43.47604" lon="6.88525">
        <ele>64.065063476562</ele>
        <time>2014-12-28T10:15:32Z</time>
      </trkpt>
      <trkpt lat="43.47603" lon="6.88526">
        <ele>65.987670898438</ele>
        <time>2014-12-28T10:15:54Z</time>
      </trkpt>
      <trkpt lat="43.47603" lon="6.88526">
        <ele>65.0263671875</ele>
        <time>2014-12-28T10:20:17Z</time>
      </trkpt>
      <trkpt lat="43.47616" lon="6.88509">
        <ele>63.584350585938</ele>
        <time>2014-12-28T10:20:39Z</time>
      </trkpt>
      <trkpt lat="43.4761" lon="6.8848">
        <ele>66.948974609375</ele>
        <time>2014-12-28T10:21:03Z</time>
      </trkpt>
      <trkpt lat="43.47609" lon="6.88478">
        <ele>67.4296875</ele>
        <time>2014-12-28T10:21:05Z</time>
      </trkpt>
      <trkpt lat="43.47603" lon="6.88469">
        <ele>68.390869140625</ele>
        <time>2014-12-28T10:21:13Z</time>
      </trkpt>
      <trkpt lat="43.47607" lon="6.88463">
        <ele>69.352294921875</ele>
        <time>2014-12-28T10:21:19Z</time>
      </trkpt>
      <trkpt lat="43.47633" lon="6.8847">
        <ele>69.352294921875</ele>
        <time>2014-12-28T10:21:41Z</time>
      </trkpt>
      <trkpt lat="43.47649" lon="6.88471">
        <ele>72.236206054688</ele>
        <time>2014-12-28T10:22:01Z</time>
      </trkpt>
      <trkpt lat="43.47675" lon="6.88477">
        <ele>76.081420898438</ele>
        <time>2014-12-28T10:22:25Z</time>
      </trkpt>
      <trkpt lat="43.47702" lon="6.88479">
        <ele>75.600830078125</ele>
        <time>2014-12-28T10:22:48Z</time>
      </trkpt>
      <trkpt lat="43.47737" lon="6.8848">
        <ele>77.042846679688</ele>
        <time>2014-12-28T10:23:16Z</time>
      </trkpt>
      <trkpt lat="43.47755" lon="6.88484">
        <ele>76.081420898438</ele>
        <time>2014-12-28T10:23:35Z</time>
      </trkpt>
      <trkpt lat="43.47764" lon="6.88496">
        <ele>79.446044921875</ele>
        <time>2014-12-28T10:23:49Z</time>
      </trkpt>
      <trkpt lat="43.47765" lon="6.88516">
        <ele>81.368774414062</ele>
        <time>2014-12-28T10:24:06Z</time>
      </trkpt>
      <trkpt lat="43.47783" lon="6.88542">
        <ele>81.368774414062</ele>
        <time>2014-12-28T10:24:30Z</time>
      </trkpt>
      <trkpt lat="43.47809" lon="6.88559">
        <ele>81.849365234375</ele>
        <time>2014-12-28T10:24:55Z</time>
      </trkpt>
      <trkpt lat="43.47823" lon="6.88563">
        <ele>83.291381835938</ele>
        <time>2014-12-28T10:25:09Z</time>
      </trkpt>
      <trkpt lat="43.47845" lon="6.88554">
        <ele>86.17529296875</ele>
        <time>2014-12-28T10:25:31Z</time>
      </trkpt>
      <trkpt lat="43.4785" lon="6.8855">
        <ele>86.656005859375</ele>
        <time>2014-12-28T10:25:51Z</time>
      </trkpt>
      <trkpt lat="43.47852" lon="6.88553">
        <ele>87.136596679688</ele>
        <time>2014-12-28T10:26:17Z</time>
      </trkpt>
      <trkpt lat="43.47862" lon="6.88539">
        <ele>85.694580078125</ele>
        <time>2014-12-28T10:26:30Z</time>
      </trkpt>
      <trkpt lat="43.4787" lon="6.8853">
        <ele>86.656005859375</ele>
        <time>2014-12-28T10:26:51Z</time>
      </trkpt>
      <trkpt lat="43.47888" lon="6.88518">
        <ele>89.059326171875</ele>
        <time>2014-12-28T10:27:09Z</time>
      </trkpt>
      <trkpt lat="43.47913" lon="6.88506">
        <ele>90.501342773438</ele>
        <time>2014-12-28T10:27:32Z</time>
      </trkpt>
      <trkpt lat="43.47931" lon="6.88485">
        <ele>90.020629882812</ele>
        <time>2014-12-28T10:27:55Z</time>
      </trkpt>
      <trkpt lat="43.47956" lon="6.88467">
        <ele>91.462524414062</ele>
        <time>2014-12-28T10:28:19Z</time>
      </trkpt>
      <trkpt lat="43.4798" lon="6.88452">
        <ele>94.346557617188</ele>
        <time>2014-12-28T10:28:42Z</time>
      </trkpt>
      <trkpt lat="43.48" lon="6.88425">
        <ele>99.153076171875</ele>
        <time>2014-12-28T10:29:08Z</time>
      </trkpt>
      <trkpt lat="43.48019" lon="6.88404">
        <ele>101.55639648438</ele>
        <time>2014-12-28T10:29:32Z</time>
      </trkpt>
      <trkpt lat="43.48041" lon="6.88387">
        <ele>105.40173339844</ele>
        <time>2014-12-28T10:29:56Z</time>
      </trkpt>
      <trkpt lat="43.48064" lon="6.88368">
        <ele>104.4404296875</ele>
        <time>2014-12-28T10:30:21Z</time>
      </trkpt>
      <trkpt lat="43.48086" lon="6.88342">
        <ele>104.92102050781</ele>
        <time>2014-12-28T10:30:47Z</time>
      </trkpt>
      <trkpt lat="43.48103" lon="6.88315">
        <ele>104.92102050781</ele>
        <time>2014-12-28T10:31:10Z</time>
      </trkpt>
      <trkpt lat="43.48116" lon="6.88284">
        <ele>106.36303710938</ele>
        <time>2014-12-28T10:31:35Z</time>
      </trkpt>
      <trkpt lat="43.48121" lon="6.88264">
        <ele>111.65026855469</ele>
        <time>2014-12-28T10:31:49Z</time>
      </trkpt>
      <trkpt lat="43.48118" lon="6.88231">
        <ele>119.3408203125</ele>
        <time>2014-12-28T10:32:11Z</time>
      </trkpt>
      <trkpt lat="43.48117" lon="6.88198">
        <ele>123.18615722656</ele>
        <time>2014-12-28T10:32:33Z</time>
      </trkpt>
      <trkpt lat="43.4812" lon="6.88161">
        <ele>126.06994628906</ele>
        <time>2014-12-28T10:32:56Z</time>
      </trkpt>
      <trkpt lat="43.48122" lon="6.88124">
        <ele>127.51196289062</ele>
        <time>2014-12-28T10:33:21Z</time>
      </trkpt>
      <trkpt lat="43.48127" lon="6.88088">
        <ele>130.87670898438</ele>
        <time>2014-12-28T10:33:44Z</time>
      </trkpt>
      <trkpt lat="43.48142" lon="6.88056">
        <ele>132.31860351562</ele>
        <time>2014-12-28T10:34:08Z</time>
      </trkpt>
      <trkpt lat="43.48142" lon="6.88058">
        <ele>133.76049804688</ele>
        <time>2014-12-28T10:34:37Z</time>
      </trkpt>
      <trkpt lat="43.48154" lon="6.8804">
        <ele>132.79931640625</ele>
        <time>2014-12-28T10:35:30Z</time>
      </trkpt>
      <trkpt lat="43.48156" lon="6.88039">
        <ele>128.47338867188</ele>
        <time>2014-12-28T10:38:58Z</time>
      </trkpt>
      <trkpt lat="43.48156" lon="6.88025">
        <ele>130.87670898438</ele>
        <time>2014-12-28T10:41:29Z</time>
      </trkpt>
      <trkpt lat="43.48167" lon="6.87984">
        <ele>128.47338867188</ele>
        <time>2014-12-28T10:41:58Z</time>
      </trkpt>
      <trkpt lat="43.48183" lon="6.87954">
        <ele>127.51196289062</ele>
        <time>2014-12-28T10:42:21Z</time>
      </trkpt>
      <trkpt lat="43.48199" lon="6.87921">
        <ele>130.87670898438</ele>
        <time>2014-12-28T10:42:46Z</time>
      </trkpt>
      <trkpt lat="43.48212" lon="6.87899">
        <ele>132.31860351562</ele>
        <time>2014-12-28T10:43:03Z</time>
      </trkpt>
      <trkpt lat="43.48228" lon="6.87862">
        <ele>133.76049804688</ele>
        <time>2014-12-28T10:43:31Z</time>
      </trkpt>
      <trkpt lat="43.48247" lon="6.87835">
        <ele>133.76049804688</ele>
        <time>2014-12-28T10:43:53Z</time>
      </trkpt>
      <trkpt lat="43.48273" lon="6.8781">
        <ele>133.27990722656</ele>
        <time>2014-12-28T10:44:19Z</time>
      </trkpt>
      <trkpt lat="43.48305" lon="6.87805">
        <ele>132.79931640625</ele>
        <time>2014-12-28T10:44:46Z</time>
      </trkpt>
      <trkpt lat="43.48338" lon="6.87806">
        <ele>132.79931640625</ele>
        <time>2014-12-28T10:45:13Z</time>
      </trkpt>
      <trkpt lat="43.4838" lon="6.87811">
        <ele>134.2412109375</ele>
        <time>2014-12-28T10:45:46Z</time>
      </trkpt>
      <trkpt lat="43.48405" lon="6.87816">
        <ele>133.27990722656</ele>
        <time>2014-12-28T10:46:06Z</time>
      </trkpt>
      <trkpt lat="43.48443" lon="6.87824">
        <ele>135.68310546875</ele>
        <time>2014-12-28T10:46:36Z</time>
      </trkpt>
      <trkpt lat="43.48479" lon="6.87839">
        <ele>140.48986816406</ele>
        <time>2014-12-28T10:47:07Z</time>
      </trkpt>
      <trkpt lat="43.48497" lon="6.87842">
        <ele>137.12524414062</ele>
        <time>2014-12-28T10:47:25Z</time>
      </trkpt>
      <trkpt lat="43.48512" lon="6.87843">
        <ele>139.0478515625</ele>
        <time>2014-12-28T10:47:37Z</time>
      </trkpt>
      <trkpt lat="43.48537" lon="6.87849">
        <ele>142.89306640625</ele>
        <time>2014-12-28T10:47:58Z</time>
      </trkpt>
      <trkpt lat="43.48564" lon="6.87862">
        <ele>143.37365722656</ele>
        <time>2014-12-28T10:48:21Z</time>
      </trkpt>
      <trkpt lat="43.4859" lon="6.87886">
        <ele>145.29638671875</ele>
        <time>2014-12-28T10:48:46Z</time>
      </trkpt>
      <trkpt lat="43.48612" lon="6.87901">
        <ele>145.77709960938</ele>
        <time>2014-12-28T10:49:08Z</time>
      </trkpt>
      <trkpt lat="43.48611" lon="6.879">
        <ele>146.73840332031</ele>
        <time>2014-12-28T10:49:29Z</time>
      </trkpt>
      <trkpt lat="43.48611" lon="6.87901">
        <ele>146.73840332031</ele>
        <time>2014-12-28T10:51:05Z</time>
      </trkpt>
      <trkpt lat="43.48632" lon="6.87865">
        <ele>142.41247558594</ele>
        <time>2014-12-28T10:51:31Z</time>
      </trkpt>
      <trkpt lat="43.48635" lon="6.87811">
        <ele>142.41247558594</ele>
        <time>2014-12-28T10:52:01Z</time>
      </trkpt>
      <trkpt lat="43.48634" lon="6.87765">
        <ele>141.93176269531</ele>
        <time>2014-12-28T10:52:28Z</time>
      </trkpt>
      <trkpt lat="43.48633" lon="6.87715">
        <ele>142.89306640625</ele>
        <time>2014-12-28T10:52:59Z</time>
      </trkpt>
      <trkpt lat="43.48633" lon="6.87661">
        <ele>132.79931640625</ele>
        <time>2014-12-28T10:53:30Z</time>
      </trkpt>
      <trkpt lat="43.48623" lon="6.87619">
        <ele>128.9541015625</ele>
        <time>2014-12-28T10:53:57Z</time>
      </trkpt>
      <trkpt lat="43.48629" lon="6.87583">
        <ele>125.58935546875</ele>
        <time>2014-12-28T10:54:21Z</time>
      </trkpt>
      <trkpt lat="43.48647" lon="6.87558">
        <ele>123.18615722656</ele>
        <time>2014-12-28T10:54:45Z</time>
      </trkpt>
      <trkpt lat="43.48662" lon="6.87523">
        <ele>121.26354980469</ele>
        <time>2014-12-28T10:55:10Z</time>
      </trkpt>
      <trkpt lat="43.48664" lon="6.87502">
        <ele>122.22473144531</ele>
        <time>2014-12-28T10:55:24Z</time>
      </trkpt>
      <trkpt lat="43.48661" lon="6.87497">
        <ele>122.22473144531</ele>
        <time>2014-12-28T10:55:30Z</time>
      </trkpt>
      <trkpt lat="43.48646" lon="6.87486">
        <ele>123.66674804688</ele>
        <time>2014-12-28T10:55:46Z</time>
      </trkpt>
      <trkpt lat="43.4864" lon="6.8745">
        <ele>127.03137207031</ele>
        <time>2014-12-28T10:56:11Z</time>
      </trkpt>
      <trkpt lat="43.48638" lon="6.87421">
        <ele>130.39599609375</ele>
        <time>2014-12-28T10:56:31Z</time>
      </trkpt>
      <trkpt lat="43.4863" lon="6.87387">
        <ele>132.31860351562</ele>
        <time>2014-12-28T10:56:57Z</time>
      </trkpt>
      <trkpt lat="43.48628" lon="6.87382">
        <ele>133.27990722656</ele>
        <time>2014-12-28T10:57:01Z</time>
      </trkpt>
      <trkpt lat="43.48621" lon="6.87383">
        <ele>134.72192382812</ele>
        <time>2014-12-28T10:57:10Z</time>
      </trkpt>
      <trkpt lat="43.48629" lon="6.87424">
        <ele>136.64465332031</ele>
        <time>2014-12-28T10:57:38Z</time>
      </trkpt>
      <trkpt lat="43.48625" lon="6.87462">
        <ele>139.0478515625</ele>
        <time>2014-12-28T10:58:04Z</time>
      </trkpt>
      <trkpt lat="43.48617" lon="6.87472">
        <ele>139.52844238281</ele>
        <time>2014-12-28T10:58:13Z</time>
      </trkpt>
      <trkpt lat="43.4861" lon="6.87464">
        <ele>139.0478515625</ele>
        <time>2014-12-28T10:58:21Z</time>
      </trkpt>
      <trkpt lat="43.48614" lon="6.87421">
        <ele>143.85437011719</ele>
        <time>2014-12-28T10:58:47Z</time>
      </trkpt>
      <trkpt lat="43.48604" lon="6.87394">
        <ele>145.29638671875</ele>
        <time>2014-12-28T10:59:09Z</time>
      </trkpt>
      <trkpt lat="43.48592" lon="6.87356">
        <ele>148.66101074219</ele>
        <time>2014-12-28T10:59:38Z</time>
      </trkpt>
      <trkpt lat="43.48582" lon="6.87331">
        <ele>150.10302734375</ele>
        <time>2014-12-28T10:59:58Z</time>
      </trkpt>
      <trkpt lat="43.48566" lon="6.87301">
        <ele>152.98693847656</ele>
        <time>2014-12-28T11:00:22Z</time>
      </trkpt>
      <trkpt lat="43.48551" lon="6.8728">
        <ele>161.158203125</ele>
        <time>2014-12-28T11:00:43Z</time>
      </trkpt>
      <trkpt lat="43.48533" lon="6.87259">
        <ele>164.52270507812</ele>
        <time>2014-12-28T11:01:05Z</time>
      </trkpt>
      <trkpt lat="43.48515" lon="6.87248">
        <ele>172.21325683594</ele>
        <time>2014-12-28T11:01:26Z</time>
      </trkpt>
      <trkpt lat="43.48507" lon="6.87243">
        <ele>171.25207519531</ele>
        <time>2014-12-28T11:01:45Z</time>
      </trkpt>
      <trkpt lat="43.48484" lon="6.87231">
        <ele>175.09729003906</ele>
        <time>2014-12-28T11:02:08Z</time>
      </trkpt>
      <trkpt lat="43.48461" lon="6.87212">
        <ele>176.05859375</ele>
        <time>2014-12-28T11:02:32Z</time>
      </trkpt>
      <trkpt lat="43.48442" lon="6.87194">
        <ele>174.13586425781</ele>
        <time>2014-12-28T11:02:52Z</time>
      </trkpt>
      <trkpt lat="43.4842" lon="6.87175">
        <ele>170.77136230469</ele>
        <time>2014-12-28T11:03:16Z</time>
      </trkpt>
      <trkpt lat="43.48396" lon="6.87144">
        <ele>170.77136230469</ele>
        <time>2014-12-28T11:03:46Z</time>
      </trkpt>
      <trkpt lat="43.48389" lon="6.87134">
        <ele>170.29064941406</ele>
        <time>2014-12-28T11:03:58Z</time>
      </trkpt>
      <trkpt lat="43.48394" lon="6.8713">
        <ele>169.81005859375</ele>
        <time>2014-12-28T11:04:17Z</time>
      </trkpt>
      <trkpt lat="43.4839" lon="6.87129">
        <ele>170.77136230469</ele>
        <time>2014-12-28T11:04:59Z</time>
      </trkpt>
      <trkpt lat="43.48385" lon="6.87128">
        <ele>169.81005859375</ele>
        <time>2014-12-28T11:05:04Z</time>
      </trkpt>
      <trkpt lat="43.48363" lon="6.87108">
        <ele>167.88732910156</ele>
        <time>2014-12-28T11:05:25Z</time>
      </trkpt>
      <trkpt lat="43.48345" lon="6.8708">
        <ele>169.81005859375</ele>
        <time>2014-12-28T11:05:50Z</time>
      </trkpt>
      <trkpt lat="43.48333" lon="6.87053">
        <ele>171.25207519531</ele>
        <time>2014-12-28T11:06:14Z</time>
      </trkpt>
      <trkpt lat="43.48333" lon="6.87035">
        <ele>173.17468261719</ele>
        <time>2014-12-28T11:06:27Z</time>
      </trkpt>
      <trkpt lat="43.48343" lon="6.87012">
        <ele>176.05859375</ele>
        <time>2014-12-28T11:06:48Z</time>
      </trkpt>
      <trkpt lat="43.48349" lon="6.86994">
        <ele>179.42321777344</ele>
        <time>2014-12-28T11:07:05Z</time>
      </trkpt>
      <trkpt lat="43.48366" lon="6.86972">
        <ele>182.78784179688</ele>
        <time>2014-12-28T11:07:28Z</time>
      </trkpt>
      <trkpt lat="43.4838" lon="6.86954">
        <ele>183.26843261719</ele>
        <time>2014-12-28T11:07:49Z</time>
      </trkpt>
      <trkpt lat="43.48406" lon="6.86947">
        <ele>189.51696777344</ele>
        <time>2014-12-28T11:08:14Z</time>
      </trkpt>
      <trkpt lat="43.4841" lon="6.86931">
        <ele>194.80432128906</ele>
        <time>2014-12-28T11:08:33Z</time>
      </trkpt>
      <trkpt lat="43.48409" lon="6.8693">
        <ele>194.80432128906</ele>
        <time>2014-12-28T11:08:35Z</time>
      </trkpt>
      <trkpt lat="43.48399" lon="6.86904">
        <ele>196.24633789062</ele>
        <time>2014-12-28T11:08:59Z</time>
      </trkpt>
      <trkpt lat="43.484" lon="6.86894">
        <ele>197.68823242188</ele>
        <time>2014-12-28T11:09:19Z</time>
      </trkpt>
      <trkpt lat="43.48405" lon="6.86892">
        <ele>196.24633789062</ele>
        <time>2014-12-28T11:09:42Z</time>
      </trkpt>
      <trkpt lat="43.48404" lon="6.86894">
        <ele>195.765625</ele>
        <time>2014-12-28T11:11:13Z</time>
      </trkpt>
      <trkpt lat="43.48405" lon="6.86896">
        <ele>195.765625</ele>
        <time>2014-12-28T11:11:52Z</time>
      </trkpt>
      <trkpt lat="43.48406" lon="6.86895">
        <ele>196.24633789062</ele>
        <time>2014-12-28T11:13:12Z</time>
      </trkpt>
      <trkpt lat="43.48423" lon="6.86891">
        <ele>197.20751953125</ele>
        <time>2014-12-28T11:13:30Z</time>
      </trkpt>
      <trkpt lat="43.48461" lon="6.86897">
        <ele>196.24633789062</ele>
        <time>2014-12-28T11:14:04Z</time>
      </trkpt>
      <trkpt lat="43.48493" lon="6.86898">
        <ele>193.84301757812</ele>
        <time>2014-12-28T11:14:34Z</time>
      </trkpt>
      <trkpt lat="43.48521" lon="6.86885">
        <ele>195.28491210938</ele>
        <time>2014-12-28T11:15:03Z</time>
      </trkpt>
      <trkpt lat="43.48552" lon="6.86859">
        <ele>193.3623046875</ele>
        <time>2014-12-28T11:15:38Z</time>
      </trkpt>
      <trkpt lat="43.48577" lon="6.86838">
        <ele>195.765625</ele>
        <time>2014-12-28T11:16:06Z</time>
      </trkpt>
      <trkpt lat="43.48606" lon="6.86818">
        <ele>197.68823242188</ele>
        <time>2014-12-28T11:16:37Z</time>
      </trkpt>
      <trkpt lat="43.48626" lon="6.868">
        <ele>200.572265625</ele>
        <time>2014-12-28T11:17:01Z</time>
      </trkpt>
      <trkpt lat="43.48646" lon="6.86781">
        <ele>201.53356933594</ele>
        <time>2014-12-28T11:17:23Z</time>
      </trkpt>
      <trkpt lat="43.48665" lon="6.86762">
        <ele>201.53356933594</ele>
        <time>2014-12-28T11:17:47Z</time>
      </trkpt>
      <trkpt lat="43.4868" lon="6.86751">
        <ele>202.49487304688</ele>
        <time>2014-12-28T11:18:03Z</time>
      </trkpt>
      <trkpt lat="43.48699" lon="6.86741">
        <ele>201.53356933594</ele>
        <time>2014-12-28T11:18:22Z</time>
      </trkpt>
      <trkpt lat="43.48709" lon="6.86747">
        <ele>200.09167480469</ele>
        <time>2014-12-28T11:18:38Z</time>
      </trkpt>
      <trkpt lat="43.48711" lon="6.86744">
        <ele>199.61083984375</ele>
        <time>2014-12-28T11:19:01Z</time>
      </trkpt>
      <trkpt lat="43.4872" lon="6.86739">
        <ele>201.53356933594</ele>
        <time>2014-12-28T11:19:15Z</time>
      </trkpt>
      <trkpt lat="43.4872" lon="6.86737">
        <ele>200.572265625</ele>
        <time>2014-12-28T11:19:52Z</time>
      </trkpt>
      <trkpt lat="43.48733" lon="6.86737">
        <ele>202.49487304688</ele>
        <time>2014-12-28T12:14:31Z</time>
      </trkpt>
      <trkpt lat="43.48734" lon="6.86737">
        <ele>202.49487304688</ele>
        <time>2014-12-28T12:14:34Z</time>
      </trkpt>
      <trkpt lat="43.48741" lon="6.86733">
        <ele>202.01428222656</ele>
        <time>2014-12-28T12:14:43Z</time>
      </trkpt>
      <trkpt lat="43.48728" lon="6.86738">
        <ele>200.572265625</ele>
        <time>2014-12-28T12:15:03Z</time>
      </trkpt>
      <trkpt lat="43.48725" lon="6.86737">
        <ele>200.09167480469</ele>
        <time>2014-12-28T12:16:50Z</time>
      </trkpt>
      <trkpt lat="43.48737" lon="6.86734">
        <ele>201.53356933594</ele>
        <time>2014-12-28T12:17:40Z</time>
      </trkpt>
      <trkpt lat="43.48739" lon="6.86734">
        <ele>202.01428222656</ele>
        <time>2014-12-28T12:17:42Z</time>
      </trkpt>
      <trkpt lat="43.48757" lon="6.86722">
        <ele>203.93688964844</ele>
        <time>2014-12-28T12:18:06Z</time>
      </trkpt>
      <trkpt lat="43.48772" lon="6.86711">
        <ele>204.89807128906</ele>
        <time>2014-12-28T12:18:26Z</time>
      </trkpt>
      <trkpt lat="43.4879" lon="6.86685">
        <ele>206.34008789062</ele>
        <time>2014-12-28T12:18:52Z</time>
      </trkpt>
      <trkpt lat="43.48808" lon="6.86664">
        <ele>205.85949707031</ele>
        <time>2014-12-28T12:19:14Z</time>
      </trkpt>
      <trkpt lat="43.4883" lon="6.86637">
        <ele>208.26281738281</ele>
        <time>2014-12-28T12:19:41Z</time>
      </trkpt>
      <trkpt lat="43.48835" lon="6.86632">
        <ele>209.22412109375</ele>
        <time>2014-12-28T12:19:48Z</time>
      </trkpt>
      <trkpt lat="43.4885" lon="6.86602">
        <ele>208.74340820312</ele>
        <time>2014-12-28T12:20:11Z</time>
      </trkpt>
      <trkpt lat="43.48859" lon="6.8657">
        <ele>208.74340820312</ele>
        <time>2014-12-28T12:20:34Z</time>
      </trkpt>
      <trkpt lat="43.48861" lon="6.86543">
        <ele>209.70483398438</ele>
        <time>2014-12-28T12:20:54Z</time>
      </trkpt>
      <trkpt lat="43.4887" lon="6.86508">
        <ele>210.666015625</ele>
        <time>2014-12-28T12:21:18Z</time>
      </trkpt>
      <trkpt lat="43.48877" lon="6.86476">
        <ele>210.18542480469</ele>
        <time>2014-12-28T12:21:41Z</time>
      </trkpt>
      <trkpt lat="43.48887" lon="6.86451">
        <ele>213.0693359375</ele>
        <time>2014-12-28T12:22:03Z</time>
      </trkpt>
      <trkpt lat="43.48906" lon="6.86431">
        <ele>214.03063964844</ele>
        <time>2014-12-28T12:22:26Z</time>
      </trkpt>
      <trkpt lat="43.4891" lon="6.86427">
        <ele>214.03063964844</ele>
        <time>2014-12-28T12:22:31Z</time>
      </trkpt>
      <trkpt lat="43.48928" lon="6.8641">
        <ele>216.43395996094</ele>
        <time>2014-12-28T12:22:52Z</time>
      </trkpt>
      <trkpt lat="43.48942" lon="6.86399">
        <ele>218.35656738281</ele>
        <time>2014-12-28T12:23:14Z</time>
      </trkpt>
      <trkpt lat="43.48962" lon="6.86395">
        <ele>217.8759765625</ele>
        <time>2014-12-28T12:23:34Z</time>
      </trkpt>
      <trkpt lat="43.48985" lon="6.86394">
        <ele>220.75988769531</ele>
        <time>2014-12-28T12:23:58Z</time>
      </trkpt>
      <trkpt lat="43.48988" lon="6.86394">
        <ele>221.24060058594</ele>
        <time>2014-12-28T12:24:01Z</time>
      </trkpt>
      <trkpt lat="43.49006" lon="6.86377">
        <ele>221.24060058594</ele>
        <time>2014-12-28T12:24:24Z</time>
      </trkpt>
      <trkpt lat="43.49011" lon="6.8637">
        <ele>222.20178222656</ele>
        <time>2014-12-28T12:24:32Z</time>
      </trkpt>
      <trkpt lat="43.49026" lon="6.86343">
        <ele>221.72119140625</ele>
        <time>2014-12-28T12:24:56Z</time>
      </trkpt>
      <trkpt lat="43.49043" lon="6.86319">
        <ele>218.35656738281</ele>
        <time>2014-12-28T12:25:20Z</time>
      </trkpt>
      <trkpt lat="43.49067" lon="6.863">
        <ele>221.24060058594</ele>
        <time>2014-12-28T12:25:45Z</time>
      </trkpt>
      <trkpt lat="43.49088" lon="6.86296">
        <ele>221.24060058594</ele>
        <time>2014-12-28T12:26:05Z</time>
      </trkpt>
      <trkpt lat="43.49103" lon="6.86298">
        <ele>225.56652832031</ele>
        <time>2014-12-28T12:26:18Z</time>
      </trkpt>
      <trkpt lat="43.49129" lon="6.86297">
        <ele>227.48913574219</ele>
        <time>2014-12-28T12:26:41Z</time>
      </trkpt>
      <trkpt lat="43.49148" lon="6.8631">
        <ele>222.20178222656</ele>
        <time>2014-12-28T12:26:59Z</time>
      </trkpt>
      <trkpt lat="43.49155" lon="6.8633">
        <ele>221.72119140625</ele>
        <time>2014-12-28T12:27:14Z</time>
      </trkpt>
      <trkpt lat="43.49161" lon="6.86356">
        <ele>223.64379882812</ele>
        <time>2014-12-28T12:27:32Z</time>
      </trkpt>
      <trkpt lat="43.49164" lon="6.86387">
        <ele>224.12451171875</ele>
        <time>2014-12-28T12:27:51Z</time>
      </trkpt>
      <trkpt lat="43.49162" lon="6.86397">
        <ele>224.60522460938</ele>
        <time>2014-12-28T12:28:10Z</time>
      </trkpt>
      <trkpt lat="43.49162" lon="6.86402">
        <ele>225.56652832031</ele>
        <time>2014-12-28T12:28:45Z</time>
      </trkpt>
      <trkpt lat="43.49162" lon="6.864">
        <ele>225.56652832031</ele>
        <time>2014-12-28T12:29:23Z</time>
      </trkpt>
      <trkpt lat="43.4916" lon="6.8637">
        <ele>225.0859375</ele>
        <time>2014-12-28T12:29:48Z</time>
      </trkpt>
      <trkpt lat="43.49161" lon="6.8638">
        <ele>224.12451171875</ele>
        <time>2014-12-28T12:30:10Z</time>
      </trkpt>
      <trkpt lat="43.49163" lon="6.86388">
        <ele>224.12451171875</ele>
        <time>2014-12-28T12:30:15Z</time>
      </trkpt>
      <trkpt lat="43.49164" lon="6.86428">
        <ele>226.04711914062</ele>
        <time>2014-12-28T12:30:42Z</time>
      </trkpt>
      <trkpt lat="43.49165" lon="6.86458">
        <ele>224.12451171875</ele>
        <time>2014-12-28T12:31:01Z</time>
      </trkpt>
      <trkpt lat="43.49163" lon="6.86484">
        <ele>226.04711914062</ele>
        <time>2014-12-28T12:31:20Z</time>
      </trkpt>
      <trkpt lat="43.49164" lon="6.86507">
        <ele>227.48913574219</ele>
        <time>2014-12-28T12:31:38Z</time>
      </trkpt>
      <trkpt lat="43.49159" lon="6.86534">
        <ele>228.45043945312</ele>
        <time>2014-12-28T12:31:58Z</time>
      </trkpt>
      <trkpt lat="43.49147" lon="6.86559">
        <ele>229.41174316406</ele>
        <time>2014-12-28T12:32:17Z</time>
      </trkpt>
      <trkpt lat="43.49139" lon="6.86581">
        <ele>233.25708007812</ele>
        <time>2014-12-28T12:32:38Z</time>
      </trkpt>
      <trkpt lat="43.49134" lon="6.86611">
        <ele>235.1796875</ele>
        <time>2014-12-28T12:33:00Z</time>
      </trkpt>
      <trkpt lat="43.49136" lon="6.86613">
        <ele>235.66027832031</ele>
        <time>2014-12-28T12:33:12Z</time>
      </trkpt>
      <trkpt lat="43.49145" lon="6.86637">
        <ele>235.1796875</ele>
        <time>2014-12-28T12:33:31Z</time>
      </trkpt>
      <trkpt lat="43.49149" lon="6.86652">
        <ele>235.66027832031</ele>
        <time>2014-12-28T12:33:49Z</time>
      </trkpt>
      <trkpt lat="43.49158" lon="6.86675">
        <ele>237.10229492188</ele>
        <time>2014-12-28T12:34:04Z</time>
      </trkpt>
      <trkpt lat="43.49156" lon="6.86699">
        <ele>236.62170410156</ele>
        <time>2014-12-28T12:34:27Z</time>
      </trkpt>
      <trkpt lat="43.49153" lon="6.86735">
        <ele>240.94763183594</ele>
        <time>2014-12-28T12:34:56Z</time>
      </trkpt>
      <trkpt lat="43.49148" lon="6.86749">
        <ele>239.02490234375</ele>
        <time>2014-12-28T12:35:05Z</time>
      </trkpt>
      <trkpt lat="43.49147" lon="6.86784">
        <ele>236.62170410156</ele>
        <time>2014-12-28T12:35:27Z</time>
      </trkpt>
      <trkpt lat="43.49159" lon="6.86815">
        <ele>236.14099121094</ele>
        <time>2014-12-28T12:35:51Z</time>
      </trkpt>
      <trkpt lat="43.49161" lon="6.86845">
        <ele>234.21838378906</ele>
        <time>2014-12-28T12:36:14Z</time>
      </trkpt>
      <trkpt lat="43.49164" lon="6.86855">
        <ele>236.14099121094</ele>
        <time>2014-12-28T12:36:36Z</time>
      </trkpt>
      <trkpt lat="43.49161" lon="6.86879">
        <ele>237.58288574219</ele>
        <time>2014-12-28T12:36:53Z</time>
      </trkpt>
      <trkpt lat="43.49171" lon="6.86896">
        <ele>236.62170410156</ele>
        <time>2014-12-28T12:37:08Z</time>
      </trkpt>
      <trkpt lat="43.49175" lon="6.86918">
        <ele>238.06359863281</ele>
        <time>2014-12-28T12:37:22Z</time>
      </trkpt>
      <trkpt lat="43.49185" lon="6.86946">
        <ele>239.98620605469</ele>
        <time>2014-12-28T12:37:45Z</time>
      </trkpt>
      <trkpt lat="43.49189" lon="6.86983">
        <ele>239.98620605469</ele>
        <time>2014-12-28T12:38:11Z</time>
      </trkpt>
      <trkpt lat="43.49196" lon="6.87001">
        <ele>241.42822265625</ele>
        <time>2014-12-28T12:38:28Z</time>
      </trkpt>
      <trkpt lat="43.49204" lon="6.87012">
        <ele>240.46704101562</ele>
        <time>2014-12-28T12:38:40Z</time>
      </trkpt>
      <trkpt lat="43.49221" lon="6.87017">
        <ele>238.54431152344</ele>
        <time>2014-12-28T12:38:55Z</time>
      </trkpt>
      <trkpt lat="43.49235" lon="6.87039">
        <ele>237.10229492188</ele>
        <time>2014-12-28T12:39:18Z</time>
      </trkpt>
      <trkpt lat="43.49249" lon="6.87049">
        <ele>236.14099121094</ele>
        <time>2014-12-28T12:40:26Z</time>
      </trkpt>
      <trkpt lat="43.49276" lon="6.87067">
        <ele>237.58288574219</ele>
        <time>2014-12-28T12:40:56Z</time>
      </trkpt>
      <trkpt lat="43.49299" lon="6.8707">
        <ele>239.50549316406</ele>
        <time>2014-12-28T12:41:21Z</time>
      </trkpt>
      <trkpt lat="43.49326" lon="6.87055">
        <ele>241.42822265625</ele>
        <time>2014-12-28T12:41:51Z</time>
      </trkpt>
      <trkpt lat="43.49353" lon="6.87052">
        <ele>244.31225585938</ele>
        <time>2014-12-28T12:42:18Z</time>
      </trkpt>
      <trkpt lat="43.49359" lon="6.87057">
        <ele>245.75415039062</ele>
        <time>2014-12-28T12:42:27Z</time>
      </trkpt>
      <trkpt lat="43.49371" lon="6.87085">
        <ele>248.15759277344</ele>
        <time>2014-12-28T12:42:51Z</time>
      </trkpt>
      <trkpt lat="43.49381" lon="6.87116">
        <ele>249.11877441406</ele>
        <time>2014-12-28T12:43:16Z</time>
      </trkpt>
      <trkpt lat="43.49389" lon="6.87119">
        <ele>249.59948730469</ele>
        <time>2014-12-28T12:43:25Z</time>
      </trkpt>
      <trkpt lat="43.49402" lon="6.87107">
        <ele>251.04138183594</ele>
        <time>2014-12-28T12:43:47Z</time>
      </trkpt>
      <trkpt lat="43.49406" lon="6.87097">
        <ele>250.56079101562</ele>
        <time>2014-12-28T12:43:58Z</time>
      </trkpt>
      <trkpt lat="43.49407" lon="6.87076">
        <ele>248.63818359375</ele>
        <time>2014-12-28T12:44:15Z</time>
      </trkpt>
      <trkpt lat="43.49407" lon="6.8703">
        <ele>244.31225585938</ele>
        <time>2014-12-28T12:44:46Z</time>
      </trkpt>
      <trkpt lat="43.49416" lon="6.86989">
        <ele>238.06359863281</ele>
        <time>2014-12-28T12:45:11Z</time>
      </trkpt>
      <trkpt lat="43.49424" lon="6.8696">
        <ele>235.1796875</ele>
        <time>2014-12-28T12:45:31Z</time>
      </trkpt>
      <trkpt lat="43.49437" lon="6.86945">
        <ele>232.29577636719</ele>
        <time>2014-12-28T12:45:48Z</time>
      </trkpt>
      <trkpt lat="43.49444" lon="6.86923">
        <ele>231.33435058594</ele>
        <time>2014-12-28T12:46:07Z</time>
      </trkpt>
      <trkpt lat="43.49443" lon="6.86921">
        <ele>231.81494140625</ele>
        <time>2014-12-28T12:46:09Z</time>
      </trkpt>
      <trkpt lat="43.4944" lon="6.86889">
        <ele>231.33435058594</ele>
        <time>2014-12-28T12:46:31Z</time>
      </trkpt>
      <trkpt lat="43.49448" lon="6.86846">
        <ele>229.89233398438</ele>
        <time>2014-12-28T12:47:00Z</time>
      </trkpt>
      <trkpt lat="43.49447" lon="6.86837">
        <ele>227.48913574219</ele>
        <time>2014-12-28T12:47:06Z</time>
      </trkpt>
      <trkpt lat="43.4943" lon="6.86811">
        <ele>227.00854492188</ele>
        <time>2014-12-28T12:47:29Z</time>
      </trkpt>
      <trkpt lat="43.49418" lon="6.86771">
        <ele>228.45043945312</ele>
        <time>2014-12-28T12:47:58Z</time>
      </trkpt>
      <trkpt lat="43.49404" lon="6.8674">
        <ele>228.45043945312</ele>
        <time>2014-12-28T12:48:22Z</time>
      </trkpt>
      <trkpt lat="43.49406" lon="6.86725">
        <ele>229.41174316406</ele>
        <time>2014-12-28T12:48:32Z</time>
      </trkpt>
      <trkpt lat="43.49412" lon="6.86716">
        <ele>229.41174316406</ele>
        <time>2014-12-28T12:48:42Z</time>
      </trkpt>
      <trkpt lat="43.49412" lon="6.86707">
        <ele>229.41174316406</ele>
        <time>2014-12-28T12:48:48Z</time>
      </trkpt>
      <trkpt lat="43.49394" lon="6.86688">
        <ele>226.52783203125</ele>
        <time>2014-12-28T12:49:08Z</time>
      </trkpt>
      <trkpt lat="43.49375" lon="6.86695">
        <ele>225.0859375</ele>
        <time>2014-12-28T12:49:30Z</time>
      </trkpt>
      <trkpt lat="43.4938" lon="6.86679">
        <ele>223.16320800781</ele>
        <time>2014-12-28T12:49:49Z</time>
      </trkpt>
      <trkpt lat="43.49382" lon="6.86651">
        <ele>219.79858398438</ele>
        <time>2014-12-28T12:50:12Z</time>
      </trkpt>
      <trkpt lat="43.49395" lon="6.86632">
        <ele>216.43395996094</ele>
        <time>2014-12-28T12:50:31Z</time>
      </trkpt>
      <trkpt lat="43.49417" lon="6.86616">
        <ele>213.55004882812</ele>
        <time>2014-12-28T12:50:55Z</time>
      </trkpt>
      <trkpt lat="43.49435" lon="6.86613">
        <ele>213.55004882812</ele>
        <time>2014-12-28T12:51:18Z</time>
      </trkpt>
      <trkpt lat="43.49427" lon="6.86598">
        <ele>211.14672851562</ele>
        <time>2014-12-28T12:51:35Z</time>
      </trkpt>
      <trkpt lat="43.49426" lon="6.86566">
        <ele>209.22412109375</ele>
        <time>2014-12-28T12:52:00Z</time>
      </trkpt>
      <trkpt lat="43.49426" lon="6.86564">
        <ele>208.74340820312</ele>
        <time>2014-12-28T12:52:02Z</time>
      </trkpt>
      <trkpt lat="43.49432" lon="6.86541">
        <ele>205.85949707031</ele>
        <time>2014-12-28T12:52:25Z</time>
      </trkpt>
      <trkpt lat="43.4941" lon="6.86537">
        <ele>206.34008789062</ele>
        <time>2014-12-28T12:52:50Z</time>
      </trkpt>
      <trkpt lat="43.49396" lon="6.86539">
        <ele>207.30139160156</ele>
        <time>2014-12-28T12:53:16Z</time>
      </trkpt>
      <trkpt lat="43.49378" lon="6.86527">
        <ele>201.53356933594</ele>
        <time>2014-12-28T12:53:37Z</time>
      </trkpt>
      <trkpt lat="43.49361" lon="6.86506">
        <ele>196.72692871094</ele>
        <time>2014-12-28T12:54:01Z</time>
      </trkpt>
      <trkpt lat="43.49354" lon="6.86476">
        <ele>189.99768066406</ele>
        <time>2014-12-28T12:54:26Z</time>
      </trkpt>
      <trkpt lat="43.49342" lon="6.86445">
        <ele>187.59436035156</ele>
        <time>2014-12-28T12:54:55Z</time>
      </trkpt>
      <trkpt lat="43.49342" lon="6.86443">
        <ele>187.11376953125</ele>
        <time>2014-12-28T12:54:57Z</time>
      </trkpt>
      <trkpt lat="43.49336" lon="6.86415">
        <ele>182.78784179688</ele>
        <time>2014-12-28T12:55:20Z</time>
      </trkpt>
      <trkpt lat="43.49332" lon="6.86388">
        <ele>178.94262695312</ele>
        <time>2014-12-28T12:55:41Z</time>
      </trkpt>
      <trkpt lat="43.49337" lon="6.86358">
        <ele>176.53930664062</ele>
        <time>2014-12-28T12:56:02Z</time>
      </trkpt>
      <trkpt lat="43.49362" lon="6.86348">
        <ele>175.57788085938</ele>
        <time>2014-12-28T12:56:28Z</time>
      </trkpt>
      <trkpt lat="43.49369" lon="6.86335">
        <ele>171.73266601562</ele>
        <time>2014-12-28T12:56:51Z</time>
      </trkpt>
      <trkpt lat="43.49354" lon="6.86328">
        <ele>170.29064941406</ele>
        <time>2014-12-28T12:57:05Z</time>
      </trkpt>
      <trkpt lat="43.49345" lon="6.86321">
        <ele>170.29064941406</ele>
        <time>2014-12-28T12:57:16Z</time>
      </trkpt>
      <trkpt lat="43.49321" lon="6.86309">
        <ele>170.29064941406</ele>
        <time>2014-12-28T12:57:41Z</time>
      </trkpt>
      <trkpt lat="43.49303" lon="6.86293">
        <ele>165.00341796875</ele>
        <time>2014-12-28T12:58:04Z</time>
      </trkpt>
      <trkpt lat="43.49288" lon="6.86267">
        <ele>162.11950683594</ele>
        <time>2014-12-28T12:58:27Z</time>
      </trkpt>
      <trkpt lat="43.49277" lon="6.8624">
        <ele>159.71618652344</ele>
        <time>2014-12-28T12:58:52Z</time>
      </trkpt>
      <trkpt lat="43.49264" lon="6.8622">
        <ele>158.75476074219</ele>
        <time>2014-12-28T12:59:13Z</time>
      </trkpt>
      <trkpt lat="43.49249" lon="6.86202">
        <ele>153.94836425781</ele>
        <time>2014-12-28T12:59:38Z</time>
      </trkpt>
      <trkpt lat="43.49234" lon="6.86187">
        <ele>153.46765136719</ele>
        <time>2014-12-28T13:00:01Z</time>
      </trkpt>
      <trkpt lat="43.49219" lon="6.86161">
        <ele>149.62231445312</ele>
        <time>2014-12-28T13:00:27Z</time>
      </trkpt>
      <trkpt lat="43.49202" lon="6.86142">
        <ele>148.18041992188</ele>
        <time>2014-12-28T13:00:54Z</time>
      </trkpt>
      <trkpt lat="43.49185" lon="6.86137">
        <ele>147.69970703125</ele>
        <time>2014-12-28T13:01:20Z</time>
      </trkpt>
      <trkpt lat="43.49166" lon="6.86137">
        <ele>144.33520507812</ele>
        <time>2014-12-28T13:01:41Z</time>
      </trkpt>
      <trkpt lat="43.49142" lon="6.86122">
        <ele>141.93176269531</ele>
        <time>2014-12-28T13:02:06Z</time>
      </trkpt>
      <trkpt lat="43.49124" lon="6.86102">
        <ele>139.0478515625</ele>
        <time>2014-12-28T13:02:30Z</time>
      </trkpt>
      <trkpt lat="43.49108" lon="6.8608">
        <ele>136.16394042969</ele>
        <time>2014-12-28T13:02:56Z</time>
      </trkpt>
      <trkpt lat="43.49095" lon="6.86059">
        <ele>135.20251464844</ele>
        <time>2014-12-28T13:03:16Z</time>
      </trkpt>
      <trkpt lat="43.49079" lon="6.8605">
        <ele>133.76049804688</ele>
        <time>2014-12-28T13:03:33Z</time>
      </trkpt>
      <trkpt lat="43.49064" lon="6.86037">
        <ele>127.03137207031</ele>
        <time>2014-12-28T13:03:57Z</time>
      </trkpt>
      <trkpt lat="43.49061" lon="6.86042">
        <ele>124.62805175781</ele>
        <time>2014-12-28T13:04:19Z</time>
      </trkpt>
      <trkpt lat="43.49067" lon="6.86033">
        <ele>123.66674804688</ele>
        <time>2014-12-28T13:04:32Z</time>
      </trkpt>
      <trkpt lat="43.49066" lon="6.86011">
        <ele>124.62805175781</ele>
        <time>2014-12-28T13:04:52Z</time>
      </trkpt>
      <trkpt lat="43.49056" lon="6.8601">
        <ele>126.06994628906</ele>
        <time>2014-12-28T13:05:11Z</time>
      </trkpt>
      <trkpt lat="43.49051" lon="6.86007">
        <ele>126.55065917969</ele>
        <time>2014-12-28T13:05:21Z</time>
      </trkpt>
      <trkpt lat="43.49045" lon="6.85996">
        <ele>125.58935546875</ele>
        <time>2014-12-28T13:05:41Z</time>
      </trkpt>
      <trkpt lat="43.49041" lon="6.85993">
        <ele>126.06994628906</ele>
        <time>2014-12-28T13:06:14Z</time>
      </trkpt>
      <trkpt lat="43.49039" lon="6.85992">
        <ele>125.58935546875</ele>
        <time>2014-12-28T13:06:15Z</time>
      </trkpt>
      <trkpt lat="43.49027" lon="6.85983">
        <ele>128.47338867188</ele>
        <time>2014-12-28T13:06:31Z</time>
      </trkpt>
      <trkpt lat="43.49007" lon="6.85984">
        <ele>131.35729980469</ele>
        <time>2014-12-28T13:06:53Z</time>
      </trkpt>
      <trkpt lat="43.48987" lon="6.85987">
        <ele>136.64465332031</ele>
        <time>2014-12-28T13:07:11Z</time>
      </trkpt>
      <trkpt lat="43.48974" lon="6.85995">
        <ele>136.16394042969</ele>
        <time>2014-12-28T13:07:32Z</time>
      </trkpt>
      <trkpt lat="43.48964" lon="6.85983">
        <ele>132.31860351562</ele>
        <time>2014-12-28T13:07:50Z</time>
      </trkpt>
      <trkpt lat="43.48949" lon="6.85993">
        <ele>133.76049804688</ele>
        <time>2014-12-28T13:08:09Z</time>
      </trkpt>
      <trkpt lat="43.48939" lon="6.85987">
        <ele>135.20251464844</ele>
        <time>2014-12-28T13:08:30Z</time>
      </trkpt>
      <trkpt lat="43.48932" lon="6.8599">
        <ele>139.52844238281</ele>
        <time>2014-12-28T13:08:54Z</time>
      </trkpt>
      <trkpt lat="43.48928" lon="6.85998">
        <ele>134.2412109375</ele>
        <time>2014-12-28T13:10:04Z</time>
      </trkpt>
      <trkpt lat="43.48927" lon="6.86001">
        <ele>129.91528320312</ele>
        <time>2014-12-28T13:14:41Z</time>
      </trkpt>
      <trkpt lat="43.48924" lon="6.86">
        <ele>128.9541015625</ele>
        <time>2014-12-28T13:14:44Z</time>
      </trkpt>
      <trkpt lat="43.48919" lon="6.85999">
        <ele>128.47338867188</ele>
        <time>2014-12-28T13:14:48Z</time>
      </trkpt>
      <trkpt lat="43.48906" lon="6.86006">
        <ele>130.39599609375</ele>
        <time>2014-12-28T13:15:06Z</time>
      </trkpt>
      <trkpt lat="43.489" lon="6.86018">
        <ele>129.91528320312</ele>
        <time>2014-12-28T13:15:27Z</time>
      </trkpt>
      <trkpt lat="43.48884" lon="6.86031">
        <ele>128.47338867188</ele>
        <time>2014-12-28T13:15:44Z</time>
      </trkpt>
      <trkpt lat="43.48878" lon="6.86038">
        <ele>127.03137207031</ele>
        <time>2014-12-28T13:15:54Z</time>
      </trkpt>
      <trkpt lat="43.48869" lon="6.86038">
        <ele>126.55065917969</ele>
        <time>2014-12-28T13:16:03Z</time>
      </trkpt>
      <trkpt lat="43.4886" lon="6.86045">
        <ele>126.06994628906</ele>
        <time>2014-12-28T13:16:21Z</time>
      </trkpt>
      <trkpt lat="43.48859" lon="6.86046">
        <ele>125.58935546875</ele>
        <time>2014-12-28T13:16:23Z</time>
      </trkpt>
      <trkpt lat="43.48854" lon="6.86063">
        <ele>121.744140625</ele>
        <time>2014-12-28T13:16:44Z</time>
      </trkpt>
      <trkpt lat="43.4885" lon="6.86073">
        <ele>117.89880371094</ele>
        <time>2014-12-28T13:16:55Z</time>
      </trkpt>
      <trkpt lat="43.48826" lon="6.86082">
        <ele>117.89880371094</ele>
        <time>2014-12-28T13:17:19Z</time>
      </trkpt>
      <trkpt lat="43.48802" lon="6.86095">
        <ele>119.3408203125</ele>
        <time>2014-12-28T13:17:44Z</time>
      </trkpt>
      <trkpt lat="43.48801" lon="6.86096">
        <ele>119.82141113281</ele>
        <time>2014-12-28T13:17:45Z</time>
      </trkpt>
      <trkpt lat="43.4878" lon="6.86111">
        <ele>118.37939453125</ele>
        <time>2014-12-28T13:18:07Z</time>
      </trkpt>
      <trkpt lat="43.48762" lon="6.86124">
        <ele>115.97619628906</ele>
        <time>2014-12-28T13:18:28Z</time>
      </trkpt>
      <trkpt lat="43.48767" lon="6.86135">
        <ele>112.13098144531</ele>
        <time>2014-12-28T13:18:48Z</time>
      </trkpt>
      <trkpt lat="43.48777" lon="6.86158">
        <ele>112.61157226562</ele>
        <time>2014-12-28T13:19:16Z</time>
      </trkpt>
      <trkpt lat="43.48775" lon="6.86158">
        <ele>114.05358886719</ele>
        <time>2014-12-28T13:20:13Z</time>
      </trkpt>
      <trkpt lat="43.48766" lon="6.8617">
        <ele>116.45678710938</ele>
        <time>2014-12-28T13:20:25Z</time>
      </trkpt>
      <trkpt lat="43.48742" lon="6.86188">
        <ele>118.86010742188</ele>
        <time>2014-12-28T13:20:50Z</time>
      </trkpt>
      <trkpt lat="43.48723" lon="6.86198">
        <ele>119.82141113281</ele>
        <time>2014-12-28T13:21:12Z</time>
      </trkpt>
      <trkpt lat="43.48703" lon="6.86209">
        <ele>121.26354980469</ele>
        <time>2014-12-28T13:21:36Z</time>
      </trkpt>
      <trkpt lat="43.48681" lon="6.86227">
        <ele>121.744140625</ele>
        <time>2014-12-28T13:22:04Z</time>
      </trkpt>
      <trkpt lat="43.4868" lon="6.86231">
        <ele>120.30212402344</ele>
        <time>2014-12-28T13:22:08Z</time>
      </trkpt>
      <trkpt lat="43.48679" lon="6.86241">
        <ele>121.26354980469</ele>
        <time>2014-12-28T13:22:14Z</time>
      </trkpt>
      <trkpt lat="43.48678" lon="6.86258">
        <ele>121.744140625</ele>
        <time>2014-12-28T13:22:30Z</time>
      </trkpt>
      <trkpt lat="43.48678" lon="6.86292">
        <ele>122.70544433594</ele>
        <time>2014-12-28T13:22:55Z</time>
      </trkpt>
      <trkpt lat="43.48676" lon="6.86327">
        <ele>125.10876464844</ele>
        <time>2014-12-28T13:23:18Z</time>
      </trkpt>
      <trkpt lat="43.48679" lon="6.86355">
        <ele>126.55065917969</ele>
        <time>2014-12-28T13:23:38Z</time>
      </trkpt>
      <trkpt lat="43.48675" lon="6.86393">
        <ele>125.58935546875</ele>
        <time>2014-12-28T13:24:04Z</time>
      </trkpt>
      <trkpt lat="43.48672" lon="6.864">
        <ele>126.55065917969</ele>
        <time>2014-12-28T13:24:10Z</time>
      </trkpt>
      <trkpt lat="43.48668" lon="6.86404">
        <ele>126.55065917969</ele>
        <time>2014-12-28T13:24:14Z</time>
      </trkpt>
      <trkpt lat="43.4864" lon="6.86429">
        <ele>127.99255371094</ele>
        <time>2014-12-28T13:24:42Z</time>
      </trkpt>
      <trkpt lat="43.48621" lon="6.8644">
        <ele>131.35729980469</ele>
        <time>2014-12-28T13:25:04Z</time>
      </trkpt>
      <trkpt lat="43.48598" lon="6.86456">
        <ele>132.31860351562</ele>
        <time>2014-12-28T13:25:30Z</time>
      </trkpt>
      <trkpt lat="43.48576" lon="6.86472">
        <ele>133.27990722656</ele>
        <time>2014-12-28T13:25:55Z</time>
      </trkpt>
      <trkpt lat="43.48558" lon="6.86499">
        <ele>134.2412109375</ele>
        <time>2014-12-28T13:26:22Z</time>
      </trkpt>
      <trkpt lat="43.48536" lon="6.86529">
        <ele>138.56726074219</ele>
        <time>2014-12-28T13:26:51Z</time>
      </trkpt>
      <trkpt lat="43.48513" lon="6.86554">
        <ele>138.56726074219</ele>
        <time>2014-12-28T13:27:19Z</time>
      </trkpt>
      <trkpt lat="43.48482" lon="6.86568">
        <ele>138.56726074219</ele>
        <time>2014-12-28T13:27:49Z</time>
      </trkpt>
      <trkpt lat="43.48453" lon="6.86583">
        <ele>141.45104980469</ele>
        <time>2014-12-28T13:28:21Z</time>
      </trkpt>
      <trkpt lat="43.48429" lon="6.86601">
        <ele>147.21899414062</ele>
        <time>2014-12-28T13:28:45Z</time>
      </trkpt>
      <trkpt lat="43.48416" lon="6.8661">
        <ele>148.66101074219</ele>
        <time>2014-12-28T13:28:58Z</time>
      </trkpt>
      <trkpt lat="43.4841" lon="6.86584">
        <ele>149.62231445312</ele>
        <time>2014-12-28T13:29:19Z</time>
      </trkpt>
      <trkpt lat="43.48413" lon="6.86556">
        <ele>152.02575683594</ele>
        <time>2014-12-28T13:29:39Z</time>
      </trkpt>
      <trkpt lat="43.48404" lon="6.86523">
        <ele>149.1416015625</ele>
        <time>2014-12-28T13:30:02Z</time>
      </trkpt>
      <trkpt lat="43.48384" lon="6.86498">
        <ele>153.46765136719</ele>
        <time>2014-12-28T13:30:27Z</time>
      </trkpt>
      <trkpt lat="43.48373" lon="6.86488">
        <ele>154.90954589844</ele>
        <time>2014-12-28T13:30:43Z</time>
      </trkpt>
      <trkpt lat="43.4837" lon="6.86487">
        <ele>154.90954589844</ele>
        <time>2014-12-28T13:30:46Z</time>
      </trkpt>
      <trkpt lat="43.48346" lon="6.86475">
        <ele>158.75476074219</ele>
        <time>2014-12-28T13:31:11Z</time>
      </trkpt>
      <trkpt lat="43.48321" lon="6.8648">
        <ele>159.71618652344</ele>
        <time>2014-12-28T13:31:37Z</time>
      </trkpt>
      <trkpt lat="43.48295" lon="6.86491">
        <ele>163.5615234375</ele>
        <time>2014-12-28T13:32:03Z</time>
      </trkpt>
      <trkpt lat="43.48264" lon="6.86514">
        <ele>164.04211425781</ele>
        <time>2014-12-28T13:32:37Z</time>
      </trkpt>
      <trkpt lat="43.48236" lon="6.86541">
        <ele>165.48413085938</ele>
        <time>2014-12-28T13:33:06Z</time>
      </trkpt>
      <trkpt lat="43.48209" lon="6.8657">
        <ele>169.81005859375</ele>
        <time>2014-12-28T13:33:36Z</time>
      </trkpt>
      <trkpt lat="43.48185" lon="6.86597">
        <ele>172.21325683594</ele>
        <time>2014-12-28T13:34:04Z</time>
      </trkpt>
      <trkpt lat="43.48167" lon="6.86627">
        <ele>172.69396972656</ele>
        <time>2014-12-28T13:34:31Z</time>
      </trkpt>
      <trkpt lat="43.48151" lon="6.86657">
        <ele>175.09729003906</ele>
        <time>2014-12-28T13:34:58Z</time>
      </trkpt>
      <trkpt lat="43.48142" lon="6.8667">
        <ele>178.4619140625</ele>
        <time>2014-12-28T13:35:09Z</time>
      </trkpt>
      <trkpt lat="43.48149" lon="6.86683">
        <ele>175.09729003906</ele>
        <time>2014-12-28T13:35:25Z</time>
      </trkpt>
      <trkpt lat="43.48149" lon="6.86686">
        <ele>173.6552734375</ele>
        <time>2014-12-28T13:35:49Z</time>
      </trkpt>
      <trkpt lat="43.48131" lon="6.86695">
        <ele>177.50061035156</ele>
        <time>2014-12-28T13:38:03Z</time>
      </trkpt>
      <trkpt lat="43.48124" lon="6.86716">
        <ele>176.53930664062</ele>
        <time>2014-12-28T13:38:27Z</time>
      </trkpt>
      <trkpt lat="43.4812" lon="6.86727">
        <ele>171.73266601562</ele>
        <time>2014-12-28T13:38:53Z</time>
      </trkpt>
      <trkpt lat="43.48119" lon="6.86727">
        <ele>170.77136230469</ele>
        <time>2014-12-28T13:39:38Z</time>
      </trkpt>
      <trkpt lat="43.48084" lon="6.86711">
        <ele>172.21325683594</ele>
        <time>2014-12-28T13:39:53Z</time>
      </trkpt>
      <trkpt lat="43.48058" lon="6.86717">
        <ele>173.17468261719</ele>
        <time>2014-12-28T13:40:10Z</time>
      </trkpt>
      <trkpt lat="43.48026" lon="6.86725">
        <ele>178.4619140625</ele>
        <time>2014-12-28T13:40:33Z</time>
      </trkpt>
      <trkpt lat="43.48021" lon="6.86727">
        <ele>179.90380859375</ele>
        <time>2014-12-28T13:40:38Z</time>
      </trkpt>
      <trkpt lat="43.48016" lon="6.8673">
        <ele>180.38452148438</ele>
        <time>2014-12-28T13:40:42Z</time>
      </trkpt>
      <trkpt lat="43.47986" lon="6.86749">
        <ele>186.15246582031</ele>
        <time>2014-12-28T13:41:08Z</time>
      </trkpt>
      <trkpt lat="43.47971" lon="6.86768">
        <ele>186.15246582031</ele>
        <time>2014-12-28T13:41:23Z</time>
      </trkpt>
      <trkpt lat="43.47965" lon="6.86783">
        <ele>189.03637695312</ele>
        <time>2014-12-28T13:41:44Z</time>
      </trkpt>
      <trkpt lat="43.47955" lon="6.86795">
        <ele>190.47839355469</ele>
        <time>2014-12-28T13:41:59Z</time>
      </trkpt>
      <trkpt lat="43.4793" lon="6.86797">
        <ele>190.47839355469</ele>
        <time>2014-12-28T13:42:24Z</time>
      </trkpt>
      <trkpt lat="43.47908" lon="6.86811">
        <ele>193.3623046875</ele>
        <time>2014-12-28T13:42:47Z</time>
      </trkpt>
      <trkpt lat="43.47881" lon="6.86821">
        <ele>197.20751953125</ele>
        <time>2014-12-28T13:43:18Z</time>
      </trkpt>
      <trkpt lat="43.47858" lon="6.86826">
        <ele>197.68823242188</ele>
        <time>2014-12-28T13:43:40Z</time>
      </trkpt>
      <trkpt lat="43.4783" lon="6.86843">
        <ele>198.1689453125</ele>
        <time>2014-12-28T13:44:08Z</time>
      </trkpt>
      <trkpt lat="43.47815" lon="6.86862">
        <ele>198.64953613281</ele>
        <time>2014-12-28T13:44:26Z</time>
      </trkpt>
      <trkpt lat="43.47807" lon="6.86872">
        <ele>199.61083984375</ele>
        <time>2014-12-28T13:44:48Z</time>
      </trkpt>
      <trkpt lat="43.47805" lon="6.86869">
        <ele>199.13012695312</ele>
        <time>2014-12-28T13:45:00Z</time>
      </trkpt>
      <trkpt lat="43.47792" lon="6.86845">
        <ele>197.68823242188</ele>
        <time>2014-12-28T13:45:20Z</time>
      </trkpt>
      <trkpt lat="43.47778" lon="6.86824">
        <ele>197.20751953125</ele>
        <time>2014-12-28T13:45:42Z</time>
      </trkpt>
      <trkpt lat="43.47773" lon="6.86821">
        <ele>196.72692871094</ele>
        <time>2014-12-28T13:45:47Z</time>
      </trkpt>
      <trkpt lat="43.47769" lon="6.86797">
        <ele>195.765625</ele>
        <time>2014-12-28T13:46:08Z</time>
      </trkpt>
      <trkpt lat="43.47761" lon="6.86785">
        <ele>194.80432128906</ele>
        <time>2014-12-28T13:46:23Z</time>
      </trkpt>
      <trkpt lat="43.47736" lon="6.86765">
        <ele>196.24633789062</ele>
        <time>2014-12-28T13:46:50Z</time>
      </trkpt>
      <trkpt lat="43.47717" lon="6.86747">
        <ele>194.80432128906</ele>
        <time>2014-12-28T13:47:12Z</time>
      </trkpt>
      <trkpt lat="43.47704" lon="6.86723">
        <ele>192.40112304688</ele>
        <time>2014-12-28T13:47:36Z</time>
      </trkpt>
      <trkpt lat="43.47685" lon="6.867">
        <ele>190.958984375</ele>
        <time>2014-12-28T13:47:58Z</time>
      </trkpt>
      <trkpt lat="43.4766" lon="6.86679">
        <ele>191.43957519531</ele>
        <time>2014-12-28T13:48:26Z</time>
      </trkpt>
      <trkpt lat="43.47632" lon="6.86667">
        <ele>192.88171386719</ele>
        <time>2014-12-28T13:48:51Z</time>
      </trkpt>
      <trkpt lat="43.47608" lon="6.86661">
        <ele>190.958984375</ele>
        <time>2014-12-28T13:49:16Z</time>
      </trkpt>
      <trkpt lat="43.47589" lon="6.86653">
        <ele>189.51696777344</ele>
        <time>2014-12-28T13:49:38Z</time>
      </trkpt>
      <trkpt lat="43.47565" lon="6.86644">
        <ele>190.47839355469</ele>
        <time>2014-12-28T13:50:03Z</time>
      </trkpt>
      <trkpt lat="43.47543" lon="6.86639">
        <ele>192.40112304688</ele>
        <time>2014-12-28T13:50:25Z</time>
      </trkpt>
      <trkpt lat="43.47518" lon="6.86637">
        <ele>190.958984375</ele>
        <time>2014-12-28T13:50:49Z</time>
      </trkpt>
      <trkpt lat="43.47497" lon="6.86634">
        <ele>189.03637695312</ele>
        <time>2014-12-28T13:51:11Z</time>
      </trkpt>
      <trkpt lat="43.47476" lon="6.86632">
        <ele>185.67175292969</ele>
        <time>2014-12-28T13:51:31Z</time>
      </trkpt>
      <trkpt lat="43.47451" lon="6.8663">
        <ele>184.22985839844</ele>
        <time>2014-12-28T13:51:55Z</time>
      </trkpt>
      <trkpt lat="43.47427" lon="6.8663">
        <ele>184.71057128906</ele>
        <time>2014-12-28T13:52:18Z</time>
      </trkpt>
      <trkpt lat="43.47401" lon="6.86633">
        <ele>187.11376953125</ele>
        <time>2014-12-28T13:52:42Z</time>
      </trkpt>
      <trkpt lat="43.47372" lon="6.86634">
        <ele>187.11376953125</ele>
        <time>2014-12-28T13:53:09Z</time>
      </trkpt>
      <trkpt lat="43.47345" lon="6.86638">
        <ele>189.99768066406</ele>
        <time>2014-12-28T13:53:34Z</time>
      </trkpt>
      <trkpt lat="43.47327" lon="6.8664">
        <ele>187.11376953125</ele>
        <time>2014-12-28T13:53:57Z</time>
      </trkpt>
      <trkpt lat="43.47307" lon="6.86645">
        <ele>187.59436035156</ele>
        <time>2014-12-28T13:54:16Z</time>
      </trkpt>
      <trkpt lat="43.4728" lon="6.86652">
        <ele>187.11376953125</ele>
        <time>2014-12-28T13:54:40Z</time>
      </trkpt>
      <trkpt lat="43.47281" lon="6.86649">
        <ele>183.7490234375</ele>
        <time>2014-12-28T13:55:35Z</time>
      </trkpt>
      <trkpt lat="43.4728" lon="6.86652">
        <ele>185.19116210938</ele>
        <time>2014-12-28T13:56:44Z</time>
      </trkpt>
      <trkpt lat="43.47272" lon="6.86672">
        <ele>187.59436035156</ele>
        <time>2014-12-28T13:57:07Z</time>
      </trkpt>
      <trkpt lat="43.47249" lon="6.86681">
        <ele>189.03637695312</ele>
        <time>2014-12-28T13:57:31Z</time>
      </trkpt>
      <trkpt lat="43.47248" lon="6.86682">
        <ele>189.03637695312</ele>
        <time>2014-12-28T13:57:32Z</time>
      </trkpt>
      <trkpt lat="43.47241" lon="6.86686">
        <ele>188.07507324219</ele>
        <time>2014-12-28T13:57:40Z</time>
      </trkpt>
      <trkpt lat="43.47226" lon="6.86688">
        <ele>190.47839355469</ele>
        <time>2014-12-28T13:57:58Z</time>
      </trkpt>
      <trkpt lat="43.4723" lon="6.86693">
        <ele>187.59436035156</ele>
        <time>2014-12-28T13:58:03Z</time>
      </trkpt>
      <trkpt lat="43.47245" lon="6.86725">
        <ele>179.42321777344</ele>
        <time>2014-12-28T13:58:27Z</time>
      </trkpt>
      <trkpt lat="43.47243" lon="6.86754">
        <ele>176.53930664062</ele>
        <time>2014-12-28T13:58:48Z</time>
      </trkpt>
      <trkpt lat="43.4724" lon="6.86787">
        <ele>173.17468261719</ele>
        <time>2014-12-28T13:59:11Z</time>
      </trkpt>
      <trkpt lat="43.47241" lon="6.86814">
        <ele>169.32946777344</ele>
        <time>2014-12-28T13:59:35Z</time>
      </trkpt>
      <trkpt lat="43.47236" lon="6.86827">
        <ele>168.36804199219</ele>
        <time>2014-12-28T13:59:49Z</time>
      </trkpt>
      <trkpt lat="43.47225" lon="6.86851">
        <ele>168.36804199219</ele>
        <time>2014-12-28T14:00:08Z</time>
      </trkpt>
      <trkpt lat="43.47209" lon="6.86894">
        <ele>168.36804199219</ele>
        <time>2014-12-28T14:00:38Z</time>
      </trkpt>
      <trkpt lat="43.47188" lon="6.86925">
        <ele>170.29064941406</ele>
        <time>2014-12-28T14:01:02Z</time>
      </trkpt>
      <trkpt lat="43.47154" lon="6.86942">
        <ele>173.6552734375</ele>
        <time>2014-12-28T14:01:30Z</time>
      </trkpt>
      <trkpt lat="43.47135" lon="6.86979">
        <ele>169.81005859375</ele>
        <time>2014-12-28T14:01:59Z</time>
      </trkpt>
      <trkpt lat="43.47128" lon="6.87024">
        <ele>169.32946777344</ele>
        <time>2014-12-28T14:02:26Z</time>
      </trkpt>
      <trkpt lat="43.47124" lon="6.87082">
        <ele>168.36804199219</ele>
        <time>2014-12-28T14:02:59Z</time>
      </trkpt>
      <trkpt lat="43.47133" lon="6.87131">
        <ele>167.40673828125</ele>
        <time>2014-12-28T14:03:28Z</time>
      </trkpt>
      <trkpt lat="43.47122" lon="6.87154">
        <ele>167.40673828125</ele>
        <time>2014-12-28T14:03:46Z</time>
      </trkpt>
      <trkpt lat="43.47092" lon="6.87162">
        <ele>168.84875488281</ele>
        <time>2014-12-28T14:04:10Z</time>
      </trkpt>
      <trkpt lat="43.47055" lon="6.87164">
        <ele>167.88732910156</ele>
        <time>2014-12-28T14:04:39Z</time>
      </trkpt>
      <trkpt lat="43.47023" lon="6.87169">
        <ele>165.48413085938</ele>
        <time>2014-12-28T14:05:04Z</time>
      </trkpt>
      <trkpt lat="43.47015" lon="6.87162">
        <ele>162.60009765625</ele>
        <time>2014-12-28T14:05:23Z</time>
      </trkpt>
      <trkpt lat="43.4701" lon="6.87158">
        <ele>157.31286621094</ele>
        <time>2014-12-28T14:05:45Z</time>
      </trkpt>
      <trkpt lat="43.4701" lon="6.87165">
        <ele>156.83215332031</ele>
        <time>2014-12-28T14:06:02Z</time>
      </trkpt>
      <trkpt lat="43.46997" lon="6.8718">
        <ele>154.90954589844</ele>
        <time>2014-12-28T14:06:24Z</time>
      </trkpt>
      <trkpt lat="43.46998" lon="6.87179">
        <ele>153.94836425781</ele>
        <time>2014-12-28T14:06:28Z</time>
      </trkpt>
      <trkpt lat="43.46983" lon="6.87179">
        <ele>152.02575683594</ele>
        <time>2014-12-28T14:06:44Z</time>
      </trkpt>
      <trkpt lat="43.46984" lon="6.87179">
        <ele>151.544921875</ele>
        <time>2014-12-28T14:06:57Z</time>
      </trkpt>
      <trkpt lat="43.46964" lon="6.87175">
        <ele>151.06420898438</ele>
        <time>2014-12-28T14:07:14Z</time>
      </trkpt>
      <trkpt lat="43.46939" lon="6.87184">
        <ele>148.18041992188</ele>
        <time>2014-12-28T14:07:37Z</time>
      </trkpt>
      <trkpt lat="43.46932" lon="6.87188">
        <ele>146.2578125</ele>
        <time>2014-12-28T14:07:44Z</time>
      </trkpt>
      <trkpt lat="43.46915" lon="6.87187">
        <ele>144.33520507812</ele>
        <time>2014-12-28T14:08:02Z</time>
      </trkpt>
      <trkpt lat="43.46888" lon="6.87195">
        <ele>138.56726074219</ele>
        <time>2014-12-28T14:08:25Z</time>
      </trkpt>
      <trkpt lat="43.46883" lon="6.87197">
        <ele>136.64465332031</ele>
        <time>2014-12-28T14:08:29Z</time>
      </trkpt>
      <trkpt lat="43.46881" lon="6.87199">
        <ele>136.16394042969</ele>
        <time>2014-12-28T14:08:31Z</time>
      </trkpt>
      <trkpt lat="43.46865" lon="6.87213">
        <ele>131.35729980469</ele>
        <time>2014-12-28T14:08:50Z</time>
      </trkpt>
      <trkpt lat="43.46842" lon="6.87245">
        <ele>127.03137207031</ele>
        <time>2014-12-28T14:09:22Z</time>
      </trkpt>
      <trkpt lat="43.46821" lon="6.87276">
        <ele>121.744140625</ele>
        <time>2014-12-28T14:09:53Z</time>
      </trkpt>
      <trkpt lat="43.46797" lon="6.87298">
        <ele>118.37939453125</ele>
        <time>2014-12-28T14:10:19Z</time>
      </trkpt>
      <trkpt lat="43.46768" lon="6.87319">
        <ele>118.37939453125</ele>
        <time>2014-12-28T14:10:52Z</time>
      </trkpt>
      <trkpt lat="43.46767" lon="6.8732">
        <ele>117.89880371094</ele>
        <time>2014-12-28T14:10:53Z</time>
      </trkpt>
      <trkpt lat="43.46738" lon="6.87318">
        <ele>114.5341796875</ele>
        <time>2014-12-28T14:11:18Z</time>
      </trkpt>
      <trkpt lat="43.46711" lon="6.87305">
        <ele>113.57299804688</ele>
        <time>2014-12-28T14:11:41Z</time>
      </trkpt>
      <trkpt lat="43.46678" lon="6.87269">
        <ele>109.72766113281</ele>
        <time>2014-12-28T14:12:12Z</time>
      </trkpt>
      <trkpt lat="43.4664" lon="6.87251">
        <ele>108.28564453125</ele>
        <time>2014-12-28T14:12:41Z</time>
      </trkpt>
      <trkpt lat="43.46616" lon="6.87249">
        <ele>106.84362792969</ele>
        <time>2014-12-28T14:13:03Z</time>
      </trkpt>
      <trkpt lat="43.46616" lon="6.87246">
        <ele>105.40173339844</ele>
        <time>2014-12-28T14:14:11Z</time>
      </trkpt>
      <trkpt lat="43.46596" lon="6.87225">
        <ele>106.36303710938</ele>
        <time>2014-12-28T14:14:30Z</time>
      </trkpt>
      <trkpt lat="43.46581" lon="6.87199">
        <ele>104.92102050781</ele>
        <time>2014-12-28T14:14:50Z</time>
      </trkpt>
      <trkpt lat="43.46566" lon="6.87158">
        <ele>108.76623535156</ele>
        <time>2014-12-28T14:15:17Z</time>
      </trkpt>
      <trkpt lat="43.46549" lon="6.87132">
        <ele>106.84362792969</ele>
        <time>2014-12-28T14:15:36Z</time>
      </trkpt>
      <trkpt lat="43.46526" lon="6.87121">
        <ele>103.95971679688</ele>
        <time>2014-12-28T14:15:57Z</time>
      </trkpt>
      <trkpt lat="43.46521" lon="6.87118">
        <ele>103.47900390625</ele>
        <time>2014-12-28T14:16:02Z</time>
      </trkpt>
      <trkpt lat="43.465" lon="6.87109">
        <ele>102.037109375</ele>
        <time>2014-12-28T14:16:21Z</time>
      </trkpt>
      <trkpt lat="43.46492" lon="6.87106">
        <ele>102.037109375</ele>
        <time>2014-12-28T14:16:28Z</time>
      </trkpt>
      <trkpt lat="43.46469" lon="6.871">
        <ele>102.99829101562</ele>
        <time>2014-12-28T14:16:51Z</time>
      </trkpt>
      <trkpt lat="43.46457" lon="6.87117">
        <ele>102.51770019531</ele>
        <time>2014-12-28T14:17:05Z</time>
      </trkpt>
      <trkpt lat="43.46448" lon="6.87121">
        <ele>102.51770019531</ele>
        <time>2014-12-28T14:17:14Z</time>
      </trkpt>
      <trkpt lat="43.46432" lon="6.87086">
        <ele>105.40173339844</ele>
        <time>2014-12-28T14:17:40Z</time>
      </trkpt>
      <trkpt lat="43.46424" lon="6.87059">
        <ele>105.88244628906</ele>
        <time>2014-12-28T14:17:57Z</time>
      </trkpt>
      <trkpt lat="43.46421" lon="6.87038">
        <ele>108.76623535156</ele>
        <time>2014-12-28T14:18:11Z</time>
      </trkpt>
      <trkpt lat="43.46412" lon="6.87009">
        <ele>108.76623535156</ele>
        <time>2014-12-28T14:18:31Z</time>
      </trkpt>
      <trkpt lat="43.46401" lon="6.8698">
        <ele>110.20825195312</ele>
        <time>2014-12-28T14:18:51Z</time>
      </trkpt>
      <trkpt lat="43.46386" lon="6.86977">
        <ele>112.61157226562</ele>
        <time>2014-12-28T14:19:07Z</time>
      </trkpt>
      <trkpt lat="43.46379" lon="6.86973">
        <ele>113.57299804688</ele>
        <time>2014-12-28T14:19:14Z</time>
      </trkpt>
      <trkpt lat="43.46365" lon="6.86993">
        <ele>114.05358886719</ele>
        <time>2014-12-28T14:19:32Z</time>
      </trkpt>
      <trkpt lat="43.46344" lon="6.87007">
        <ele>117.89880371094</ele>
        <time>2014-12-28T14:19:51Z</time>
      </trkpt>
      <trkpt lat="43.46339" lon="6.87011">
        <ele>118.86010742188</ele>
        <time>2014-12-28T14:19:56Z</time>
      </trkpt>
      <trkpt lat="43.46322" lon="6.87029">
        <ele>121.26354980469</ele>
        <time>2014-12-28T14:20:17Z</time>
      </trkpt>
      <trkpt lat="43.46309" lon="6.87035">
        <ele>122.70544433594</ele>
        <time>2014-12-28T14:20:29Z</time>
      </trkpt>
      <trkpt lat="43.46291" lon="6.87051">
        <ele>123.18615722656</ele>
        <time>2014-12-28T14:20:48Z</time>
      </trkpt>
      <trkpt lat="43.46292" lon="6.87055">
        <ele>121.26354980469</ele>
        <time>2014-12-28T14:20:52Z</time>
      </trkpt>
      <trkpt lat="43.46297" lon="6.87087">
        <ele>120.78283691406</ele>
        <time>2014-12-28T14:21:15Z</time>
      </trkpt>
      <trkpt lat="43.46295" lon="6.87118">
        <ele>122.70544433594</ele>
        <time>2014-12-28T14:21:36Z</time>
      </trkpt>
      <trkpt lat="43.46288" lon="6.87155">
        <ele>125.58935546875</ele>
        <time>2014-12-28T14:22:00Z</time>
      </trkpt>
      <trkpt lat="43.46283" lon="6.87193">
        <ele>126.06994628906</ele>
        <time>2014-12-28T14:22:25Z</time>
      </trkpt>
      <trkpt lat="43.46268" lon="6.87225">
        <ele>127.03137207031</ele>
        <time>2014-12-28T14:22:48Z</time>
      </trkpt>
      <trkpt lat="43.46245" lon="6.87242">
        <ele>124.14733886719</ele>
        <time>2014-12-28T14:23:08Z</time>
      </trkpt>
      <trkpt lat="43.46224" lon="6.87259">
        <ele>120.78283691406</ele>
        <time>2014-12-28T14:23:30Z</time>
      </trkpt>
      <trkpt lat="43.46223" lon="6.87261">
        <ele>121.26354980469</ele>
        <time>2014-12-28T14:23:34Z</time>
      </trkpt>
      <trkpt lat="43.4622" lon="6.87263">
        <ele>120.30212402344</ele>
        <time>2014-12-28T14:23:38Z</time>
      </trkpt>
      <trkpt lat="43.46206" lon="6.87265">
        <ele>120.30212402344</ele>
        <time>2014-12-28T14:23:53Z</time>
      </trkpt>
      <trkpt lat="43.46196" lon="6.87266">
        <ele>117.89880371094</ele>
        <time>2014-12-28T14:24:06Z</time>
      </trkpt>
      <trkpt lat="43.4618" lon="6.87268">
        <ele>117.89880371094</ele>
        <time>2014-12-28T14:24:23Z</time>
      </trkpt>
      <trkpt lat="43.46165" lon="6.87272">
        <ele>115.49560546875</ele>
        <time>2014-12-28T14:24:38Z</time>
      </trkpt>
      <trkpt lat="43.46168" lon="6.87283">
        <ele>114.05358886719</ele>
        <time>2014-12-28T14:24:48Z</time>
      </trkpt>
      <trkpt lat="43.46161" lon="6.87321">
        <ele>113.09228515625</ele>
        <time>2014-12-28T14:25:13Z</time>
      </trkpt>
      <trkpt lat="43.46144" lon="6.87351">
        <ele>113.09228515625</ele>
        <time>2014-12-28T14:25:36Z</time>
      </trkpt>
      <trkpt lat="43.46126" lon="6.8737">
        <ele>110.68884277344</ele>
        <time>2014-12-28T14:25:55Z</time>
      </trkpt>
      <trkpt lat="43.46104" lon="6.87391">
        <ele>112.13098144531</ele>
        <time>2014-12-28T14:26:18Z</time>
      </trkpt>
      <trkpt lat="43.46085" lon="6.87405">
        <ele>111.16955566406</ele>
        <time>2014-12-28T14:26:39Z</time>
      </trkpt>
      <trkpt lat="43.46072" lon="6.87406">
        <ele>113.57299804688</ele>
        <time>2014-12-28T14:26:51Z</time>
      </trkpt>
      <trkpt lat="43.46065" lon="6.87428">
        <ele>111.65026855469</ele>
        <time>2014-12-28T14:27:08Z</time>
      </trkpt>
      <trkpt lat="43.46049" lon="6.87452">
        <ele>110.20825195312</ele>
        <time>2014-12-28T14:27:30Z</time>
      </trkpt>
      <trkpt lat="43.46045" lon="6.8746">
        <ele>110.68884277344</ele>
        <time>2014-12-28T14:27:36Z</time>
      </trkpt>
      <trkpt lat="43.46022" lon="6.87481">
        <ele>111.65026855469</ele>
        <time>2014-12-28T14:27:58Z</time>
      </trkpt>
      <trkpt lat="43.46" lon="6.87474">
        <ele>113.09228515625</ele>
        <time>2014-12-28T14:28:18Z</time>
      </trkpt>
      <trkpt lat="43.4597" lon="6.87446">
        <ele>113.09228515625</ele>
        <time>2014-12-28T14:28:50Z</time>
      </trkpt>
      <trkpt lat="43.45949" lon="6.87412">
        <ele>108.28564453125</ele>
        <time>2014-12-28T14:29:16Z</time>
      </trkpt>
      <trkpt lat="43.45923" lon="6.87368">
        <ele>104.4404296875</ele>
        <time>2014-12-28T14:29:51Z</time>
      </trkpt>
      <trkpt lat="43.45909" lon="6.87341">
        <ele>98.19189453125</ele>
        <time>2014-12-28T14:30:12Z</time>
      </trkpt>
      <trkpt lat="43.45897" lon="6.87307">
        <ele>95.307739257812</ele>
        <time>2014-12-28T14:30:37Z</time>
      </trkpt>
      <trkpt lat="43.45886" lon="6.87282">
        <ele>93.865844726562</ele>
        <time>2014-12-28T14:30:58Z</time>
      </trkpt>
      <trkpt lat="43.45882" lon="6.87263">
        <ele>90.98193359375</ele>
        <time>2014-12-28T14:31:14Z</time>
      </trkpt>
      <trkpt lat="43.45872" lon="6.87236">
        <ele>84.252685546875</ele>
        <time>2014-12-28T14:31:35Z</time>
      </trkpt>
      <trkpt lat="43.45867" lon="6.87221">
        <ele>82.810791015625</ele>
        <time>2014-12-28T14:31:47Z</time>
      </trkpt>
      <trkpt lat="43.45861" lon="6.8721">
        <ele>81.849365234375</ele>
        <time>2014-12-28T14:31:58Z</time>
      </trkpt>
      <trkpt lat="43.45854" lon="6.87182">
        <ele>80.88818359375</ele>
        <time>2014-12-28T14:32:19Z</time>
      </trkpt>
      <trkpt lat="43.45836" lon="6.87172">
        <ele>81.368774414062</ele>
        <time>2014-12-28T14:32:38Z</time>
      </trkpt>
      <trkpt lat="43.45812" lon="6.87168">
        <ele>78.965454101562</ele>
        <time>2014-12-28T14:33:02Z</time>
      </trkpt>
      <trkpt lat="43.45791" lon="6.8717">
        <ele>77.042846679688</ele>
        <time>2014-12-28T14:33:23Z</time>
      </trkpt>
      <trkpt lat="43.45779" lon="6.87158">
        <ele>75.600830078125</ele>
        <time>2014-12-28T14:33:39Z</time>
      </trkpt>
      <trkpt lat="43.45768" lon="6.87144">
        <ele>72.716918945312</ele>
        <time>2014-12-28T14:33:58Z</time>
      </trkpt>
      <trkpt lat="43.45757" lon="6.87124">
        <ele>67.910278320312</ele>
        <time>2014-12-28T14:34:21Z</time>
      </trkpt>
      <trkpt lat="43.45747" lon="6.87094">
        <ele>62.142333984375</ele>
        <time>2014-12-28T14:34:46Z</time>
      </trkpt>
      <trkpt lat="43.45745" lon="6.87068">
        <ele>60.2197265625</ele>
        <time>2014-12-28T14:35:06Z</time>
      </trkpt>
      <trkpt lat="43.45742" lon="6.87038">
        <ele>58.777709960938</ele>
        <time>2014-12-28T14:35:28Z</time>
      </trkpt>
      <trkpt lat="43.45737" lon="6.87014">
        <ele>56.37451171875</ele>
        <time>2014-12-28T14:35:48Z</time>
      </trkpt>
      <trkpt lat="43.45738" lon="6.86984">
        <ele>54.932373046875</ele>
        <time>2014-12-28T14:36:08Z</time>
      </trkpt>
      <trkpt lat="43.45733" lon="6.86968">
        <ele>49.645263671875</ele>
        <time>2014-12-28T14:36:26Z</time>
      </trkpt>
      <trkpt lat="43.45731" lon="6.86953">
        <ele>46.280639648438</ele>
        <time>2014-12-28T14:36:43Z</time>
      </trkpt>
      <trkpt lat="43.4573" lon="6.86948">
        <ele>46.280639648438</ele>
        <time>2014-12-28T14:36:47Z</time>
      </trkpt>
      <trkpt lat="43.45729" lon="6.86935">
        <ele>44.838623046875</ele>
        <time>2014-12-28T14:36:56Z</time>
      </trkpt>
      <trkpt lat="43.45735" lon="6.86908">
        <ele>45.799926757812</ele>
        <time>2014-12-28T14:37:16Z</time>
      </trkpt>
      <trkpt lat="43.45721" lon="6.8689">
        <ele>45.319213867188</ele>
        <time>2014-12-28T14:37:35Z</time>
      </trkpt>
      <trkpt lat="43.45701" lon="6.86889">
        <ele>42.435424804688</ele>
        <time>2014-12-28T14:37:54Z</time>
      </trkpt>
      <trkpt lat="43.45676" lon="6.8689">
        <ele>40.993408203125</ele>
        <time>2014-12-28T14:38:20Z</time>
      </trkpt>
      <trkpt lat="43.45662" lon="6.86895">
        <ele>39.55126953125</ele>
        <time>2014-12-28T14:38:44Z</time>
      </trkpt>
      <trkpt lat="43.45663" lon="6.86893">
        <ele>38.590087890625</ele>
        <time>2014-12-28T14:38:50Z</time>
      </trkpt>
      <trkpt lat="43.45659" lon="6.8687">
        <ele>38.109375</ele>
        <time>2014-12-28T14:39:11Z</time>
      </trkpt>
      <trkpt lat="43.45657" lon="6.86871">
        <ele>38.109375</ele>
        <time>2014-12-28T14:39:42Z</time>
      </trkpt>
    </trkseg>
  </trk>
</gpx>